Flight Track Log - Related Links

Times and Time Zones

All times are in EST time to prevent confusion due to time zone crossing. See the AFL150 flight status page for this flight to view local times or setup timezone preferences in your user account.

Time Position Orientation Groundspeed Altitude Reporting Facility
EST Latitude Longitude Course Direction KTS MPH feet Rate Location/Type
Tue 05:08:30 AM 57.1420 34.9550 North 476 548 32,000  Level FlightAware ADS-B
Tue 05:09:05 AM 57.2190 34.9570 North 476 548 32,000  Level FlightAware ADS-B
Tue 05:09:35 AM 57.2830 34.9590 North 475 547 32,000  Level FlightAware ADS-B
Tue 05:10:10 AM 57.3610 34.9610 North 473 544 32,000  Level FlightAware ADS-B
Tue 05:10:40 AM 57.4250 34.9630 North 470 541 32,000  Level FlightAware ADS-B
Tue 05:11:05 AM 57.4770 34.9650 North 468 539 32,000  Level FlightAware ADS-B
Tue 05:11:45 AM 57.5660 34.9670 North 464 534 32,000  Level FlightAware ADS-B
Tue 05:12:20 AM 57.6410 34.9700 North 461 531 32,000  Level FlightAware ADS-B
Tue 05:13:00 AM 57.7210 34.9470 351° North 423 487 32,000  Level FlightAware ADS-B
Tue 05:13:20 AM 57.7550 34.9140 333° Northwest 406 467 32,000  Level FlightAware ADS-B
Tue 05:14:00 AM 57.8150 34.8330 324° Northwest 404 465 32,000  Level FlightAware ADS-B
Tue 05:14:40 AM 57.8740 34.7510 324° Northwest 407 468 32,000  Level FlightAware ADS-B
Tue 05:15:20 AM 57.9350 34.6650 323° Northwest 406 467 32,000  Level FlightAware ADS-B
Tue 05:15:50 AM 57.9770 34.6060 323° Northwest 407 468 32,000  Level FlightAware ADS-B
Tue 05:16:25 AM 58.0320 34.5300 324° Northwest 407 468 32,000  Level FlightAware ADS-B
Tue 05:17:05 AM 58.0920 34.4460 324° Northwest 407 468 32,000  Level FlightAware ADS-B
Tue 05:17:40 AM 58.1460 34.3700 323° Northwest 407 468 32,000  Level FlightAware ADS-B
Tue 05:18:10 AM 58.1910 34.3040 322° Northwest 405 466 32,000  Level FlightAware ADS-B
Tue 05:18:55 AM 58.2530 34.2080 321° Northwest 405 466 32,000  Level FlightAware ADS-B
Tue 05:19:30 AM 58.3030 34.1310 321° Northwest 406 467 32,000  Level FlightAware ADS-B
Tue 05:20:10 AM 58.3520 34.0540 321° Northwest 406 467 32,000  Level FlightAware ADS-B
Tue 05:20:46 AM 58.3970 33.9850 321° Northwest 406 467 32,000  Level FlightAware ADS-B
Tue 05:21:46 AM 58.4710 33.8700 321° Northwest 406 467 32,000  Level FlightAware ADS-B
Tue 05:22:35 AM 58.5320 33.7760 321° Northwest 406 467 32,000  Level FlightAware ADS-B
Tue 05:23:30 AM 58.6600 33.5790 321° Northwest 415 478 32,000  Level FlightAware ADS-B
Tue 05:24:27 AM 58.7410 33.4480 320° Northwest 415 478 32,000  Level FlightAware ADS-B
Tue 05:25:17 AM 58.8080 33.3210 316° Northwest 415 478 32,000  Level FlightAware ADS-B
Tue 05:26:22 AM 58.8990 33.1440 315° West 418 481 32,000  Level FlightAware ADS-B
Tue 05:27:07 AM 58.9610 33.0230 315° West 420 483 32,000  Level FlightAware ADS-B
Tue 05:27:37 AM 59.0010 32.9460 315° West 422 486 32,000  Level FlightAware ADS-B
Tue 05:28:37 AM 59.0790 32.7930 315° West 424 488 32,000  Level FlightAware ADS-B
Tue 05:29:02 AM 59.1170 32.7170 314° West 425 489 32,000  Level FlightAware ADS-B
Tue 05:29:58 AM 59.1950 32.5610 314° West 425 489 32,000  Level FlightAware ADS-B
Tue 05:30:43 AM 59.2570 32.4370 314° West 427 491 32,000  Level FlightAware ADS-B
Tue 05:31:37 AM 59.3320 32.2870 314° West 427 491 32,000  Level FlightAware ADS-B
Tue 05:32:12 AM 59.3740 32.2020 314° West 427 491 32,000  Level FlightAware ADS-B
Tue 05:32:52 AM 59.4300 32.0860 314° West 424 488 32,000  Level FlightAware ADS-B
Tue 05:33:27 AM 59.4670 31.9690 302° West 406 467 32,000  Level FlightAware ADS-B
Tue 05:34:21 AM 59.5080 31.7850 294° West 404 465 32,000  Level FlightAware ADS-B
Tue 05:34:56 AM 59.5300 31.6800 292° West 404 465 32,000  Level FlightAware ADS-B
Tue 05:35:26 AM 59.5560 31.5620 294° West 405 466 32,000  Level FlightAware ADS-B
Tue 05:36:01 AM 59.5810 31.4430 293° West 406 467 32,000  Level FlightAware ADS-B
Tue 05:37:16 AM 59.6360 31.1880 293° West 406 467 32,000  Level FlightAware ADS-B
Tue 05:37:47 AM 59.6570 31.0870 292° West 407 468 32,000  Level FlightAware ADS-B
Tue 05:38:26 AM 59.6870 30.9480 293° West 407 468 32,000  Level FlightAware ADS-B
Tue 05:39:36 AM 59.7370 30.7100 293° West 409 471 32,000  Level FlightAware ADS-B
Tue 05:40:06 AM 59.7570 30.6020 290° West 406 467 32,000  Level FlightAware ADS-B
Tue 05:40:41 AM 59.7760 30.4790 287° West 405 466 32,000  Level FlightAware ADS-B
Tue 05:41:41 AM 59.8010 30.2710 284° West 392 451 32,000  Level FlightAware ADS-B
Tue 05:42:19 AM 59.7900 30.1380 261° West 383 441 32,000  Level FlightAware ADS-B
Tue 05:42:54 AM 59.7750 30.0160 256° West 385 443 32,000  Level FlightAware ADS-B
Tue 05:44:02 AM 59.7450 29.7790 256° West 388 447 32,000  Level FlightAware ADS-B
Tue 05:44:58 AM 59.7210 29.5880 256° West 390 449 32,000  Level FlightAware ADS-B
Tue 05:46:03 AM 59.6910 29.3620 255° West 391 450 32,000  Level FlightAware ADS-B
Tue 05:46:51 AM 59.6700 29.1950 256° West 390 449 32,000  Level FlightAware ADS-B
Tue 05:47:23 AM 59.6550 29.0870 255° West 389 448 32,000  Level FlightAware ADS-B
Tue 05:47:56 AM 59.6400 28.9720 256° West 390 449 32,000  Level FlightAware ADS-B
Tue 05:48:31 AM 59.6240 28.8550 255° West 389 448 32,000  Level FlightAware ADS-B
Tue 05:49:13 AM 59.6240 28.7000 270° West 414 476 32,000  Level FlightAware ADS-B
Tue 05:50:04 AM 59.6500 28.5170 286° West 417 480 32,000  Level FlightAware ADS-B
Tue 05:50:42 AM 59.6710 28.3770 287° West 417 480 32,000  Level FlightAware ADS-B
Tue 05:51:24 AM 59.6930 28.2230 286° West 417 480 32,000  Level FlightAware ADS-B
Tue 05:52:03 AM 59.7130 28.0820 286° West 419 482 32,000  Level FlightAware ADS-B
Tue 05:52:59 AM 59.7420 27.8730 285° West 421 484 32,000  Level FlightAware ADS-B
Tue 05:53:38 AM 59.7620 27.7280 285° West 423 487 32,000  Level FlightAware ADS-B
Tue 05:54:10 AM 59.7790 27.6090 286° West 422 486 32,000  Level FlightAware ADS-B
Tue 05:54:43 AM 59.7960 27.4860 285° West 422 486 32,000  Level FlightAware ADS-B
Tue 05:55:29 AM 59.8190 27.3140 285° West 422 486 32,000  Level FlightAware ADS-B
Tue 05:56:09 AM 59.8390 27.1650 285° West 422 486 32,000  Level FlightAware ADS-B
Tue 05:57:02 AM 59.8650 26.9650 285° West 422 486 32,000  Level FlightAware ADS-B
Tue 05:57:46 AM 59.8870 26.8000 285° West 423 487 32,000  Level FlightAware ADS-B
Tue 05:58:23 AM 59.9050 26.6620 285° West 424 488 32,000  Level FlightAware ADS-B
Tue 05:59:00 AM 59.9230 26.5210 284° West 424 488 32,000  Level FlightAware ADS-B
Tue 05:59:43 AM 59.9440 26.3590 285° West 425 489 32,000  Level FlightAware ADS-B
Tue 06:00:29 AM 59.9660 26.1870 284° West 428 493 32,000  Level FlightAware ADS-B
Tue 06:01:14 AM 60.0130 26.0260 300° West 440 506 32,000  Level FlightAware ADS-B
Tue 06:01:49 AM 60.0450 25.8960 296° West 443 510 32,000  Level FlightAware ADS-B
Tue 06:02:38 AM 60.0930 25.7210 299° West 445 512 32,000  Level FlightAware ADS-B
Tue 06:03:35 AM 60.1500 25.5170 299° West 448 516 32,000  Level FlightAware ADS-B
Tue 06:04:19 AM 60.1950 25.3580 300° West 448 516 32,000  Level FlightAware ADS-B
Tue 06:05:04 AM 60.2390 25.1940 298° West 450 518 32,000  Level FlightAware ADS-B
Tue 06:05:49 AM 60.2850 25.0280 299° West 452 520 32,000  Level FlightAware ADS-B
Tue 06:06:20 AM 60.3160 24.9140 299° West 454 522 32,000  Level FlightAware ADS-B
Tue 06:07:20 AM 60.3760 24.6890 298° West 458 527 32,000  Level FlightAware ADS-B
Tue 06:08:06 AM 60.4220 24.5130 298° West 460 529 32,000  Level FlightAware ADS-B
Tue 06:08:56 AM 60.4720 24.3270 299° West 463 533 32,000  Level FlightAware ADS-B
Tue 06:09:55 AM 60.5310 24.1000 298° West 463 533 32,000  Level FlightAware ADS-B
Tue 06:10:40 AM 60.5760 23.9280 298° West 463 533 32,000  Level FlightAware ADS-B
Tue 06:11:04 AM 60.5990 23.8360 297° West 464 534 32,000  Level FlightAware ADS-B
Tue 06:12:00 AM 60.6550 23.6180 298° West 465 535 32,000  Level FlightAware ADS-B
Tue 06:12:41 AM 60.6960 23.4560 297° West 465 535 32,000  Level FlightAware ADS-B
Tue 06:13:18 AM 60.7310 23.3160 297° West 466 536 32,000  Level FlightAware ADS-B
Tue 06:14:01 AM 60.7740 23.1430 297° West 466 536 32,000  Level FlightAware ADS-B
Tue 06:14:32 AM 60.8040 23.0250 298° West 468 539 32,000  Level FlightAware ADS-B
Tue 06:15:06 AM 60.8380 22.8870 297° West 469 540 32,000  Level FlightAware ADS-B
Tue 06:15:52 AM 60.8820 22.7080 297° West 470 541 32,000  Level FlightAware ADS-B
Tue 06:16:53 AM 60.9410 22.4640 297° West 471 542 32,000  Level FlightAware ADS-B
Tue 06:17:25 AM 60.9720 22.3350 296° West 472 543 32,000  Level FlightAware ADS-B
Tue 06:18:28 AM 61.0330 22.0800 296° West 474 545 32,000  Level FlightAware ADS-B
Tue 06:19:13 AM 61.0810 21.9020 299° West 480 552 32,000  Level FlightAware ADS-B
Tue 06:19:55 AM 61.1301 21.7395 302° West 483 556 32,000  Level FlightAware ADS-B
Tue 06:20:32 AM 61.1742 21.5932 302° West 483 556 32,000  Level FlightAware ADS-B
Tue 06:21:12 AM 61.2215 21.4351 302° West 485 558 32,000  Level FlightAware ADS-B
Tue 06:22:27 AM 61.3097 21.1363 302° West 485 558 32,000  Level FlightAware ADS-B
Tue 06:23:07 AM 61.3562 20.9774 301° West 485 558 32,000  Level FlightAware ADS-B
Tue 06:24:03 AM 61.4210 20.7540 301° West 487 560 32,000  Level FlightAware ADS-B
Tue 06:24:22 AM 61.4430 20.6772 301° West 484 557 32,000  Level FlightAware ADS-B
Tue 06:24:58 AM 61.4843 20.5331 301° West 484 557 32,000  Level FlightAware ADS-B
Tue 06:25:29 AM 61.5201 20.4074 301° West 481 554 32,000  Level FlightAware ADS-B
Tue 06:26:07 AM 61.5640 20.2540 301° West 484 557 32,000  Level FlightAware ADS-B
Tue 06:27:27 AM 61.6540 19.9310 301° West 485 558 32,000  Level FlightAware ADS-B
Tue 06:27:57 AM 61.6876 19.8102 300° West 487 560 32,000  Level FlightAware ADS-B
Tue 06:28:39 AM 61.7350 19.6390 300° West 486 559 32,000  Level FlightAware ADS-B
Tue 06:29:16 AM 61.7760 19.4870 300° West 486 559 32,000  Level FlightAware ADS-B
Tue 06:30:10 AM 61.8530 19.2840 309° West 492 566 32,000  Level FlightAware ADS-B
Tue 06:30:47 AM 61.9110 19.1610 315° West 491 565 32,000  Level FlightAware ADS-B
Tue 06:31:24 AM 61.9710 19.0350 315° West 491 565 32,000  Level FlightAware ADS-B
Tue 06:32:31 AM 62.0780 18.8060 315° West 492 566 32,000  Level FlightAware ADS-B
Tue 06:33:06 AM 62.1340 18.6870 315° West 492 566 32,000  Level FlightAware ADS-B
Tue 06:33:52 AM 62.2080 18.5290 315° West 494 568 32,000  Level FlightAware ADS-B
Tue 06:34:52 AM 62.3040 18.3190 315° West 494 568 32,000  Level FlightAware ADS-B
Tue 06:35:56 AM 62.4060 18.0960 315° West 495 570 32,000  Level FlightAware ADS-B
Tue 06:36:48 AM 62.4890 17.9130 315° West 492 566 32,000  Level FlightAware ADS-B
Tue 06:37:14 AM 62.5310 17.8190 314° West 490 564 32,000  Level FlightAware ADS-B
Tue 06:38:23 AM 62.6390 17.5770 314° West 487 560 32,000  Level FlightAware ADS-B
Tue 06:39:00 AM 62.6960 17.4480 314° West 485 558 32,000  Level FlightAware ADS-B
Tue 06:39:30 AM 62.7430 17.3400 314° West 483 556 32,000  Level FlightAware ADS-B
Tue 06:40:03 AM 62.7930 17.2260 314° West 481 554 32,000  Level FlightAware ADS-B
Tue 06:40:48 AM 62.8590 17.0730 313° West 478 550 32,000  Level FlightAware ADS-B
Tue 06:41:49 AM 62.9530 16.8560 314° West 473 544 32,000  Level FlightAware ADS-B
Tue 06:42:52 AM 63.0480 16.6330 313° West 469 540 32,000  Level FlightAware ADS-B
Tue 06:43:29 AM 63.1020 16.5060 313° West 467 537 32,000  Level FlightAware ADS-B
Tue 06:43:59 AM 63.1460 16.4000 313° West 466 536 32,000  Level FlightAware ADS-B
Tue 06:44:40 AM 63.2060 16.2560 313° West 464 534 32,000  Level FlightAware ADS-B
Tue 06:45:21 AM 63.2630 16.1190 313° West 462 532 32,000  Level FlightAware ADS-B
Tue 06:46:00 AM 63.3190 15.9830 313° West 460 529 32,000  Level FlightAware ADS-B
Tue 06:46:42 AM 63.3790 15.8370 313° West 459 528 32,000  Level FlightAware ADS-B
Tue 06:47:23 AM 63.4390 15.6890 312° West 458 527 32,000  Level FlightAware ADS-B
Tue 06:48:03 AM 63.4950 15.5510 312° West 459 528 32,000  Level FlightAware ADS-B
Tue 06:48:35 AM 63.5410 15.4370 312° West 460 529 32,000  Level FlightAware ADS-B
Tue 06:49:23 AM 63.6090 15.2690 312° West 460 529 32,000  Level FlightAware ADS-B
Tue 06:49:52 AM 63.6510 15.1630 312° West 459 528 32,000  Level FlightAware ADS-B
Tue 06:51:09 AM 63.7580 14.8910 312° West 461 531 32,000  Level FlightAware ADS-B
Tue 06:51:45 AM 63.8090 14.7610 312° West 462 532 32,000  Level FlightAware ADS-B
Tue 06:52:21 AM 63.8600 14.6300 311° West 464 534 32,000  Level FlightAware ADS-B
Tue 06:52:57 AM 63.9100 14.4990 311° West 465 535 32,000  Level FlightAware ADS-B
Tue 06:53:41 AM 63.9730 14.3360 311° West 466 536 32,000  Level FlightAware ADS-B
Tue 06:54:11 AM 64.0150 14.2250 311° West 466 536 32,000  Level FlightAware ADS-B
Tue 06:54:47 AM 64.0650 14.0920 311° West 466 536 32,000  Level FlightAware ADS-B
Tue 06:55:47 AM 64.1490 13.8700 311° West 465 535 32,000  Level FlightAware ADS-B
Tue 06:56:51 AM 64.2380 13.6290 310° West 464 534 32,000  Level FlightAware ADS-B
Tue 06:57:35 AM 64.3000 13.4620 311° West 463 533 32,000  Level FlightAware ADS-B
Tue 06:58:13 AM 64.3510 13.3210 310° West 462 532 32,000  Level FlightAware ADS-B
Tue 06:58:47 AM 64.3980 13.1930 310° West 462 532 32,000  Level FlightAware ADS-B
Tue 06:59:27 AM 64.4520 13.0420 310° West 460 529 32,000  Level FlightAware ADS-B
Tue 07:00:03 AM 64.5020 12.9040 310° West 459 528 32,000  Level FlightAware ADS-B
Tue 07:00:39 AM 64.5510 12.7670 310° West 458 527 32,000  Level FlightAware ADS-B
Tue 07:01:25 AM 64.6110 12.5970 310° West 456 525 32,000  Level FlightAware ADS-B
Tue 07:02:00 AM 64.6590 12.4610 310° West 454 522 32,000  Level FlightAware ADS-B
Tue 07:02:41 AM 64.7120 12.3100 309° West 453 521 32,000  Level FlightAware ADS-B
Tue 07:03:27 AM 64.7730 12.1350 309° West 452 520 32,000  Level FlightAware ADS-B
Tue 07:04:03 AM 64.8210 11.9960 309° West 451 519 32,000  Level FlightAware ADS-B
Tue 07:04:35 AM 64.8620 11.8770 309° West 450 518 32,000  Level FlightAware ADS-B
Tue 07:05:15 AM 64.9140 11.7220 308° West 451 519 32,000  Level FlightAware ADS-B
Tue 07:06:23 AM 64.9990 11.4700 309° West 451 519 32,000  Level FlightAware ADS-B
Tue 07:07:31 AM 65.0900 11.1980 309° West 450 518 32,000  Level FlightAware ADS-B
Tue 07:08:03 AM 65.1310 11.0730 308° West 450 518 32,000  Level FlightAware ADS-B
Tue 07:09:13 AM 65.2200 10.8010 308° West 448 516 32,000  Level FlightAware ADS-B
Tue 07:09:51 AM 65.2670 10.6560 308° West 446 513 32,000  Level FlightAware ADS-B
Tue 07:10:21 AM 65.3050 10.5400 308° West 445 512 32,000  Level FlightAware ADS-B
Tue 07:11:03 AM 65.3580 10.3740 307° West 445 512 32,000  Level FlightAware ADS-B
Tue 07:11:37 AM 65.4000 10.2430 308° West 445 512 32,000  Level FlightAware ADS-B
Tue 07:12:35 AM 65.4730 10.0120 307° West 444 511 32,000  Level FlightAware ADS-B
Tue 07:13:13 AM 65.5160 9.8730 307° West 443 510 32,000  Level FlightAware ADS-B
Tue 07:13:50 AM 65.5620 9.7250 307° West 442 509 32,000  Level FlightAware ADS-B
Tue 07:14:29 AM 65.6120 9.5650 307° West 441 507 32,000  Level FlightAware ADS-B
Tue 07:15:16 AM 65.6690 9.3790 307° West 440 506 32,000  Level FlightAware ADS-B
Tue 07:15:54 AM 65.7140 9.2290 306° West 439 505 32,000  Level FlightAware ADS-B
Tue 07:16:33 AM 65.7610 9.0760 307° West 437 503 32,000  Level FlightAware ADS-B
Tue 07:17:06 AM 65.8000 8.9450 306° West 436 502 32,000  Level FlightAware ADS-B
Tue 07:17:40 AM 65.8390 8.8150 306° West 434 499 32,000  Level FlightAware ADS-B
Tue 07:18:19 AM 65.8770 8.6820 305° West 434 499 32,000  Level FlightAware ADS-B
Tue 07:19:02 AM 65.9350 8.4890 306° West 431 496 32,000  Level FlightAware ADS-B
Tue 07:19:37 AM 65.9770 8.3480 306° West 428 493 32,000  Level FlightAware ADS-B
Tue 07:20:15 AM 66.0190 8.2030 306° West 426 490 32,000  Level FlightAware ADS-B
Tue 07:20:44 AM 66.0470 8.1030 305° West 426 490 32,000  Level FlightAware ADS-B
Tue 07:21:19 AM 66.0920 7.9480 306° West 423 487 32,000  Level FlightAware ADS-B
Tue 07:22:02 AM 66.1400 7.7790 305° West 422 486 32,000  Level FlightAware ADS-B
Tue 07:22:35 AM 66.1760 7.6520 305° West 422 486 32,000  Level FlightAware ADS-B
Tue 07:23:16 AM 66.2150 7.5090 304° West 422 486 32,000  Level FlightAware ADS-B
Tue 07:24:14 AM 66.2870 7.2550 305° West 421 484 32,000  Level FlightAware ADS-B
Tue 07:25:26 AM 66.3660 6.9710 305° West 422 486 32,000  Level FlightAware ADS-B
Tue 07:26:02 AM 66.3990 6.8480 304° West 422 486 32,000  Level FlightAware ADS-B
Tue 07:26:38 AM 66.4320 6.7240 304° West 422 486 32,000  Level FlightAware ADS-B
Tue 07:27:15 AM 66.4670 6.5970 305° West 422 486 32,000  Level FlightAware ADS-B
Tue 07:27:58 AM 66.5320 6.3550 304° West 427 491 32,000  Level FlightAware ADS-B
Tue 07:28:35 AM 66.5670 6.2200 303° West 428 493 32,000  Level FlightAware ADS-B
Tue 07:29:24 AM 66.6120 6.0460 303° West 428 493 32,000  Level FlightAware ADS-B
Tue 07:29:48 AM 66.6340 5.9610 303° West 428 493 32,000  Level FlightAware ADS-B
Tue 07:30:36 AM 66.6780 5.7900 303° West 428 493 32,000  Level FlightAware ADS-B
Tue 07:31:13 AM 66.7120 5.6580 303° West 428 493 32,000  Level FlightAware ADS-B
Tue 07:32:25 AM 66.7780 5.4000 303° West 428 493 32,000  Level FlightAware ADS-B
Tue 07:33:01 AM 66.8110 5.2710 303° West 428 493 32,000  Level FlightAware ADS-B
Tue 07:33:37 AM 66.8440 5.1420 303° West 428 493 32,000  Level FlightAware ADS-B
Tue 07:34:25 AM 66.8880 4.9700 303° West 428 493 32,000  Level FlightAware ADS-B
Tue 07:35:01 AM 66.9210 4.8400 303° West 428 493 32,000  Level FlightAware ADS-B
Tue 07:35:37 AM 66.9540 4.7100 303° West 428 493 32,000  Level FlightAware ADS-B
Tue 07:36:13 AM 66.9870 4.5800 303° West 428 493 32,000  Level FlightAware ADS-B
Tue 07:36:49 AM 67.0200 4.4500 303° West 428 493 32,000  Level FlightAware ADS-B
Tue 07:37:25 AM 67.0530 4.3200 303° West 428 493 32,000  Level FlightAware ADS-B
Tue 07:38:01 AM 67.0860 4.1900 303° West 428 493 32,000 16 Level FlightAware ADS-B
Tue 07:41:00 AM 67.1228 3.2731 276° West  Level Estimated
Tue 07:42:00 AM 67.1340 2.9652 275° West  Level Estimated
Tue 07:43:00 AM 67.1446 2.6570 275° West  Level Estimated
Tue 07:44:00 AM 67.1546 2.3485 275° West  Level Estimated
Tue 07:45:00 AM 67.1640 2.0398 275° West  Level Estimated
Tue 07:46:00 AM 67.1728 1.7309 274° West  Level Estimated
Tue 07:47:00 AM 67.1809 1.4217 274° West  Level Estimated
Tue 07:48:00 AM 67.1886 1.1123 274° West  Level Estimated
Tue 07:49:00 AM 67.1955 0.8028 273° West  Level Estimated
Tue 07:50:00 AM 67.2020 0.4930 273° West  Level Estimated
Tue 07:51:00 AM 67.2078 0.1831 273° West  Level Estimated
Tue 07:52:00 AM 67.2130 -0.1269 273° West  Level Estimated
Tue 07:53:00 AM 67.2176 -0.4370 272° West  Level Estimated
Tue 07:54:00 AM 67.2216 -0.7473 272° West  Level Estimated
Tue 07:55:00 AM 67.2250 -1.0577 272° West  Level Estimated
Tue 07:56:00 AM 67.2278 -1.3681 271° West  Level Estimated
Tue 07:57:00 AM 67.2300 -1.6786 271° West  Level Estimated
Tue 07:58:00 AM 67.2316 -1.9892 271° West  Level Estimated
Tue 07:59:00 AM 67.2327 -2.2998 271° West  Level Estimated
Tue 08:00:00 AM 67.2331 -2.6104 270° West  Level Estimated
Tue 08:01:00 AM 67.2329 -2.9210 270° West  Level Estimated
Tue 08:02:00 AM 67.2321 -3.2316 270° West  Level Estimated
Tue 08:03:00 AM 67.2307 -3.5422 269° West  Level Estimated
Tue 08:04:00 AM 67.2287 -3.8527 269° West  Level Estimated
Tue 08:05:00 AM 67.2261 -4.1632 269° West  Level Estimated
Tue 08:06:00 AM 67.2229 -4.4735 269° West  Level Estimated
Tue 08:07:00 AM 67.2191 -4.7839 268° West  Level Estimated
Tue 08:08:00 AM 67.2147 -5.0940 268° West  Level Estimated
Tue 08:09:00 AM 67.2097 -5.4041 268° West  Level Estimated
Tue 08:10:00 AM 67.2041 -5.7141 267° West  Level Estimated
Tue 08:11:00 AM 67.1979 -6.0238 267° West  Level Estimated
Tue 08:12:00 AM 67.1911 -6.3335 267° West  Level Estimated
Tue 08:13:00 AM 67.1837 -6.6429 267° West  Level Estimated
Tue 08:14:00 AM 67.1757 -6.9521 266° West  Level Estimated
Tue 08:15:00 AM 67.1671 -7.2612 266° West  Level Estimated
Tue 08:16:00 AM 67.1580 -7.5700 266° West  Level Estimated
Tue 08:17:00 AM 67.1482 -7.8785 265° West  Level Estimated
Tue 08:18:00 AM 67.1378 -8.1868 265° West  Level Estimated
Tue 08:19:00 AM 67.1269 -8.4949 265° West  Level Estimated
Tue 08:20:00 AM 67.1153 -8.8026 265° West  Level Estimated
Tue 08:21:00 AM 67.1032 -9.1101 264° West  Level Estimated
Tue 08:22:00 AM 67.0904 -9.4172 264° West  Level Estimated
Tue 08:23:00 AM 67.0771 -9.7240 264° West  Level Estimated
Tue 08:24:00 AM 67.0632 -10.0304 263° West  Level Estimated
Tue 08:25:00 AM 67.0487 -10.3365 263° West  Level Estimated
Tue 08:26:00 AM 67.0336 -10.6422 263° West  Level Estimated
Tue 08:27:00 AM 67.0179 -10.9475 263° West  Level Estimated
Tue 08:28:00 AM 67.0017 -11.2525 262° West  Level Estimated
Tue 08:29:00 AM 66.9848 -11.5570 262° West  Level Estimated
Tue 08:30:00 AM 66.9674 -11.8611 262° West  Level Estimated
Tue 08:31:00 AM 66.9494 -12.1647 262° West  Level Estimated
Tue 08:32:00 AM 66.9308 -12.4679 261° West  Level Estimated
Tue 08:33:00 AM 66.9117 -12.7706 261° West  Level Estimated
Tue 08:34:00 AM 66.8919 -13.0729 261° West  Level Estimated
Tue 08:35:00 AM 66.8716 -13.3746 260° West  Level Estimated
Tue 08:36:00 AM 66.8507 -13.6758 260° West  Level Estimated
Tue 08:37:00 AM 66.8293 -13.9766 260° West  Level Estimated
Tue 08:38:00 AM 66.8073 -14.2767 260° West  Level Estimated
Tue 08:39:00 AM 66.7847 -14.5764 259° West  Level Estimated
Tue 08:40:00 AM 66.7615 -14.8755 259° West  Level Estimated
Tue 08:41:00 AM 66.7378 -15.1740 259° West  Level Estimated
Tue 08:42:00 AM 66.7135 -15.4719 258° West  Level Estimated
Tue 08:43:00 AM 66.6887 -15.7692 258° West  Level Estimated
Tue 08:44:00 AM 66.6633 -16.0660 258° West  Level Estimated
Tue 08:45:00 AM 66.6373 -16.3621 258° West  Level Estimated
Tue 08:46:00 AM 66.6108 -16.6576 257° West  Level Estimated
Tue 08:47:00 AM 66.5837 -16.9524 257° West  Level Estimated
Tue 08:48:00 AM 66.5561 -17.2466 257° West  Level Estimated
Tue 08:49:00 AM 66.5279 -17.5402 257° West  Level Estimated
Tue 08:50:00 AM 66.4991 -17.8330 256° West  Level Estimated
Tue 08:51:00 AM 66.4699 -18.1252 256° West  Level Estimated
Tue 08:52:00 AM 66.4400 -18.4167 256° West  Level Estimated
Tue 08:53:00 AM 66.4097 -18.7075 256° West  Level Estimated
Tue 08:54:00 AM 66.3788 -18.9976 255° West  Level Estimated
Tue 08:55:00 AM 66.3474 -19.2870 255° West  Level Estimated
Tue 08:56:00 AM 66.3154 -19.5756 255° West  Level Estimated
Tue 08:57:00 AM 66.2829 -19.8635 254° West  Level Estimated
Tue 08:58:00 AM 66.2498 -20.1507 254° West  Level Estimated
Tue 08:59:00 AM 66.2163 -20.4371 254° West  Level Estimated
Tue 09:00:00 AM 66.1822 -20.7227 254° West  Level Estimated
Tue 09:01:00 AM 66.1476 -21.0075 253° West  Level Estimated
Tue 09:02:00 AM 66.1124 -21.2916 253° West  Level Estimated
Tue 09:03:00 AM 66.0768 -21.5749 253° West  Level Estimated
Tue 09:04:00 AM 66.0406 -21.8573 253° West  Level Estimated
Tue 09:05:00 AM 66.0039 -22.1390 252° West  Level Estimated
Tue 09:06:00 AM 65.9667 -22.4199 252° West  Level Estimated
Tue 09:07:00 AM 65.9289 -22.6999 252° West  Level Estimated
Tue 09:08:00 AM 65.8907 -22.9791 252° West  Level Estimated
Tue 09:09:00 AM 65.8520 -23.2575 251° West  Level Estimated
Tue 09:10:00 AM 65.8128 -23.5350 251° West  Level Estimated
Tue 09:11:00 AM 65.7730 -23.8116 251° West  Level Estimated
Tue 09:12:00 AM 65.7328 -24.0875 251° West  Level Estimated
Tue 09:13:00 AM 65.6921 -24.3624 250° West  Level Estimated
Tue 09:14:00 AM 65.6509 -24.6365 250° West  Level Estimated
Tue 09:15:00 AM 65.6092 -24.9097 250° West  Level Estimated
Tue 09:16:00 AM 65.5669 -25.1820 250° West  Level Estimated
Tue 09:17:00 AM 65.5243 -25.4534 249° West  Level Estimated
Tue 09:18:00 AM 65.4811 -25.7240 249° West  Level Estimated
Tue 09:19:00 AM 65.4374 -25.9936 249° West  Level Estimated
Tue 09:20:00 AM 65.3933 -26.2624 249° West  Level Estimated
Tue 09:21:00 AM 65.3487 -26.5302 248° West  Level Estimated
Tue 09:22:00 AM 65.3036 -26.7972 248° West  Level Estimated
Tue 09:23:00 AM 65.2581 -27.0632 248° West  Level Estimated
Tue 09:24:00 AM 65.2121 -27.3283 248° West  Level Estimated
Tue 09:25:00 AM 65.1656 -27.5924 247° West  Level Estimated
Tue 09:26:00 AM 65.1186 -27.8556 247° West  Level Estimated
Tue 09:27:00 AM 65.0695 -28.1277 247° West  Level Estimated
Tue 09:28:00 AM 65.0197 -28.3990 247° West  Level Estimated
Tue 09:29:00 AM 64.9695 -28.6693 246° West  Level Estimated
Tue 09:30:00 AM 64.9189 -28.9385 246° West  Level Estimated
Tue 09:31:00 AM 64.8677 -29.2068 246° West  Level Estimated
Tue 09:32:00 AM 64.8160 -29.4740 246° West  Level Estimated
Tue 09:33:00 AM 64.7639 -29.7401 245° Southwest  Level Estimated
Tue 09:34:00 AM 64.7113 -30.0053 245° Southwest  Level Estimated
Tue 09:35:00 AM 64.6582 -30.2694 245° Southwest  Level Estimated
Tue 09:36:00 AM 64.6047 -30.5325 245° Southwest  Level Estimated
Tue 09:37:00 AM 64.5503 -30.7963 244° Southwest  Level Estimated
Tue 09:38:00 AM 64.4968 -31.0525 244° Southwest  Level Estimated
Tue 09:39:00 AM 64.4429 -31.3076 244° Southwest  Level Estimated
Tue 09:40:00 AM 64.3885 -31.5618 244° Southwest  Level Estimated
Tue 09:41:00 AM 64.3337 -31.8149 244° Southwest  Level Estimated
Tue 09:42:00 AM 64.2785 -32.0671 243° Southwest  Level Estimated
Tue 09:43:00 AM 64.2229 -32.3182 243° Southwest  Level Estimated
Tue 09:44:00 AM 64.1668 -32.5683 243° Southwest  Level Estimated
Tue 09:45:00 AM 64.1103 -32.8174 243° Southwest  Level Estimated
Tue 09:46:00 AM 64.0533 -33.0655 242° Southwest  Level Estimated
Tue 09:47:00 AM 63.9960 -33.3126 242° Southwest  Level Estimated
Tue 09:48:00 AM 63.9382 -33.5586 242° Southwest  Level Estimated
Tue 09:49:00 AM 63.8800 -33.8037 242° Southwest  Level Estimated
Tue 09:50:00 AM 63.8214 -34.0477 242° Southwest  Level Estimated
Tue 09:51:00 AM 63.7624 -34.2907 241° Southwest  Level Estimated
Tue 09:52:00 AM 63.7030 -34.5327 241° Southwest  Level Estimated
Tue 09:53:00 AM 63.6431 -34.7737 241° Southwest  Level Estimated
Tue 09:54:00 AM 63.5829 -35.0136 241° Southwest  Level Estimated
Tue 09:55:00 AM 63.5223 -35.2526 240° Southwest  Level Estimated
Tue 09:56:00 AM 63.4613 -35.4905 240° Southwest  Level Estimated
Tue 09:57:00 AM 63.3998 -35.7274 240° Southwest  Level Estimated
Tue 09:58:00 AM 63.3380 -35.9633 240° Southwest  Level Estimated
Tue 09:59:00 AM 63.2758 -36.1982 240° Southwest  Level Estimated
Tue 10:00:00 AM 63.2133 -36.4320 239° Southwest  Level Estimated
Tue 10:01:00 AM 63.1503 -36.6649 239° Southwest  Level Estimated
Tue 10:02:00 AM 63.0870 -36.8967 239° Southwest  Level Estimated
Tue 10:03:00 AM 63.0233 -37.1275 239° Southwest  Level Estimated
Tue 10:04:00 AM 62.9592 -37.3574 239° Southwest  Level Estimated
Tue 10:05:00 AM 62.8947 -37.5862 238° Southwest  Level Estimated
Tue 10:06:00 AM 62.8299 -37.8140 238° Southwest  Level Estimated
Tue 10:07:00 AM 62.7647 -38.0408 238° Southwest  Level Estimated
Tue 10:08:00 AM 62.6991 -38.2666 238° Southwest  Level Estimated
Tue 10:09:00 AM 62.6332 -38.4914 238° Southwest  Level Estimated
Tue 10:10:00 AM 62.5669 -38.7151 237° Southwest  Level Estimated
Tue 10:11:00 AM 62.5003 -38.9380 237° Southwest  Level Estimated
Tue 10:12:00 AM 62.4333 -39.1598 237° Southwest  Level Estimated
Tue 10:13:00 AM 62.3659 -39.3806 237° Southwest  Level Estimated
Tue 10:14:00 AM 62.2982 -39.6004 237° Southwest  Level Estimated
Tue 10:15:00 AM 62.2302 -39.8192 236° Southwest  Level Estimated
Tue 10:16:00 AM 62.1618 -40.0370 236° Southwest  Level Estimated
Tue 10:17:00 AM 62.0931 -40.2539 236° Southwest  Level Estimated
Tue 10:18:00 AM 62.0241 -40.4698 236° Southwest  Level Estimated
Tue 10:19:00 AM 61.9547 -40.6847 236° Southwest  Level Estimated
Tue 10:20:00 AM 61.8849 -40.8986 235° Southwest  Level Estimated
Tue 10:21:00 AM 61.8149 -41.1115 235° Southwest  Level Estimated
Tue 10:22:00 AM 61.7445 -41.3235 235° Southwest  Level Estimated
Tue 10:23:00 AM 61.6738 -41.5345 235° Southwest  Level Estimated
Tue 10:24:00 AM 61.6028 -41.7445 235° Southwest  Level Estimated
Tue 10:25:00 AM 61.5314 -41.9536 234° Southwest  Level Estimated
Tue 10:26:00 AM 61.4598 -42.1617 234° Southwest  Level Estimated
Tue 10:27:00 AM 61.3878 -42.3688 234° Southwest  Level Estimated
Tue 10:28:00 AM 61.3155 -42.5750 234° Southwest  Level Estimated
Tue 10:29:00 AM 61.2429 -42.7803 234° Southwest  Level Estimated
Tue 10:30:00 AM 61.1699 -42.9846 234° Southwest  Level Estimated
Tue 10:31:00 AM 61.0967 -43.1880 233° Southwest  Level Estimated
Tue 10:32:00 AM 61.0232 -43.3904 233° Southwest  Level Estimated
Tue 10:33:00 AM 60.9493 -43.5918 233° Southwest  Level Estimated
Tue 10:34:00 AM 60.8752 -43.7924 233° Southwest  Level Estimated
Tue 10:35:00 AM 60.8008 -43.9920 233° Southwest  Level Estimated
Tue 10:36:00 AM 60.7261 -44.1907 232° Southwest  Level Estimated
Tue 10:37:00 AM 60.6511 -44.3884 232° Southwest  Level Estimated
Tue 10:38:00 AM 60.5757 -44.5853 232° Southwest  Level Estimated
Tue 10:39:00 AM 60.5002 -44.7812 232° Southwest  Level Estimated
Tue 10:40:00 AM 60.4243 -44.9762 232° Southwest  Level Estimated
Tue 10:41:00 AM 60.3481 -45.1703 232° Southwest  Level Estimated
Tue 10:42:00 AM 60.2717 -45.3635 231° Southwest  Level Estimated
Tue 10:43:00 AM 60.1950 -45.5558 231° Southwest  Level Estimated
Tue 10:43:55 AM 62.3100 -49.1500 231° Southwest 464 534 35,000  Level FlightAware ADS-B
Tue 10:44:00 AM 60.1180 -45.7472 231° Southwest  Level Estimated
Tue 10:44:41 AM 62.2480 -49.3220 232° Southwest 464 534 35,000  Level FlightAware ADS-B
Tue 10:45:00 AM 60.0407 -45.9377 231° Southwest  Level Estimated
Tue 10:45:19 AM 62.1990 -49.4560 232° Southwest 464 534 35,000  Level FlightAware ADS-B
Tue 10:45:51 AM 62.1570 -49.5730 232° Southwest 463 533 35,000  Level FlightAware ADS-B
Tue 10:46:29 AM 62.1140 -49.6890 232° Southwest 463 533 35,000  Level FlightAware ADS-B
Tue 10:47:05 AM 62.0740 -49.8000 232° Southwest 463 533 35,000  Level FlightAware ADS-B
Tue 10:47:54 AM 62.0190 -49.9500 232° Southwest 463 533 35,000  Level FlightAware ADS-B
Tue 10:48:28 AM 61.9810 -50.0540 232° Southwest 463 533 35,000  Level FlightAware ADS-B
Tue 10:48:52 AM 61.9540 -50.1270 232° Southwest 463 533 35,000  Level FlightAware ADS-B
Tue 10:49:28 AM 61.9140 -50.2370 232° Southwest 463 533 35,000  Level FlightAware ADS-B
Tue 10:50:40 AM 61.8330 -50.4560 232° Southwest 463 533 35,000  Level FlightAware ADS-B
Tue 10:51:16 AM 61.7930 -50.5650 232° Southwest 463 533 35,000  Level FlightAware ADS-B
Tue 10:52:05 AM 61.7380 -50.7140 232° Southwest 463 533 35,000  Level FlightAware ADS-B
Tue 10:52:41 AM 61.6970 -50.8230 232° Southwest 463 533 35,000  Level FlightAware ADS-B
Tue 10:53:41 AM 61.6300 -51.0040 232° Southwest 463 533 35,000  Level FlightAware ADS-B
Tue 10:55:12 AM 61.5700 -51.7290 260° West 463 533 35,000  Level FlightAware ADS-B
Tue 10:55:50 AM 61.5360 -51.8560 241° Southwest 463 533 35,000  Level FlightAware ADS-B
Tue 10:56:26 AM 61.5040 -51.9760 241° Southwest 463 533 35,000  Level FlightAware ADS-B
Tue 10:57:07 AM 61.4430 -52.2190 242° Southwest 462 532 35,000  Level FlightAware ADS-B
Tue 10:57:37 AM 61.4130 -52.3350 242° Southwest 463 533 35,000  Level FlightAware ADS-B
Tue 10:58:51 AM 61.3450 -52.5780 240° Southwest 463 533 35,000  Level FlightAware ADS-B
Tue 10:59:40 AM 61.3010 -52.7390 240° Southwest 463 533 35,000  Level FlightAware ADS-B
Tue 11:00:27 AM 61.2410 -52.9750 242° Southwest 461 531 35,000  Level FlightAware ADS-B
Tue 11:01:06 AM 61.2050 -53.1020 240° Southwest 461 531 35,000  Level FlightAware ADS-B
Tue 11:01:52 AM 61.1640 -53.2520 241° Southwest 461 531 35,000  Level FlightAware ADS-B
Tue 11:02:29 AM 61.1300 -53.3720 240° Southwest 461 531 35,000  Level FlightAware ADS-B
Tue 11:02:53 AM 61.1080 -53.4500 240° Southwest 461 531 35,000  Level FlightAware ADS-B
Tue 11:03:29 AM 61.0760 -53.5670 241° Southwest 461 531 35,000  Level FlightAware ADS-B
Tue 11:04:06 AM 61.0420 -53.6870 240° Southwest 461 531 35,000  Level FlightAware ADS-B
Tue 11:04:40 AM 61.0110 -53.7970 240° Southwest 461 531 35,000  Level FlightAware ADS-B
Tue 11:05:16 AM 60.9790 -53.9140 241° Southwest 461 531 35,000  Level FlightAware ADS-B
Tue 11:05:52 AM 60.9460 -54.0300 240° Southwest 461 531 35,000  Level FlightAware ADS-B
Tue 11:06:38 AM 60.9040 -54.1790 240° Southwest 461 531 35,000  Level FlightAware ADS-B
Tue 11:07:15 AM 60.8710 -54.2980 240° Southwest 461 531 35,000  Level FlightAware ADS-B
Tue 11:07:39 AM 60.8490 -54.3760 240° Southwest 461 531 35,000  Level FlightAware ADS-B
Tue 11:08:16 AM 60.8150 -54.4950 240° Southwest 461 531 35,000  Level FlightAware ADS-B
Tue 11:08:54 AM 60.7810 -54.6170 240° Southwest 461 531 35,000  Level FlightAware ADS-B
Tue 11:09:16 AM 60.7610 -54.6880 240° Southwest 461 531 35,000  Level FlightAware ADS-B
Tue 11:10:19 AM 60.7040 -54.8900 240° Southwest 461 531 35,000  Level FlightAware ADS-B
Tue 11:13:00 AM 60.5311 -55.4629 239° Southwest  Level FlightAware Approximate
Tue 11:14:00 AM 60.4660 -55.6748 238° Southwest  Level FlightAware Approximate
Tue 11:15:00 AM 60.4006 -55.8858 238° Southwest  Level FlightAware Approximate
Tue 11:16:00 AM 60.3348 -56.0961 238° Southwest  Level FlightAware Approximate
Tue 11:17:00 AM 60.2688 -56.3054 238° Southwest  Level FlightAware Approximate
Tue 11:18:00 AM 60.2024 -56.5140 237° Southwest  Level FlightAware Approximate
Tue 11:19:00 AM 60.1357 -56.7216 237° Southwest  Level FlightAware Approximate
Tue 11:20:00 AM 60.0686 -56.9285 237° Southwest  Level FlightAware Approximate
Tue 11:20:58 AM 59.8667 -57.4667 236° Southwest 460 529 35,000  Level Gander Center
Tue 11:21:00 AM 60.0012 -57.1345 237° Southwest  Level FlightAware Approximate
Tue 11:21:58 AM 59.8000 -57.7167 242° Southwest 460 529 35,000  Level Gander Center
Tue 11:22:00 AM 59.9335 -57.3396 237° Southwest  Level FlightAware Approximate
Tue 11:22:58 AM 59.7333 -57.9167 237° Southwest 460 529 35,000  Level Gander Center
Tue 11:23:00 AM 59.8655 -57.5440 237° Southwest  Level FlightAware Approximate
Tue 11:23:58 AM 59.6667 -58.1167 237° Southwest 460 529 35,000  Level Gander Center
Tue 11:24:00 AM 59.7972 -57.7475 236° Southwest  Level FlightAware Approximate
Tue 11:24:58 AM 59.5500 -58.2667 213° Southwest 460 529 35,000  Level Gander Center
Tue 11:25:00 AM 59.7286 -57.9501 236° Southwest  Level FlightAware Approximate
Tue 11:25:58 AM 59.4333 -58.3667 204° Southwest 460 529 35,000  Level Gander Center
Tue 11:26:00 AM 59.6596 -58.1519 236° Southwest  Level FlightAware Approximate
Tue 11:26:58 AM 59.3167 -58.5167 213° Southwest 470 541 35,000  Level Gander Center
Tue 11:27:58 AM 59.2167 -58.6167 207° Southwest 470 541 35,000  Level Gander Center
Tue 11:28:58 AM 59.1000 -58.7500 210° Southwest 470 541 35,000  Level Gander Center
Tue 11:29:58 AM 58.9833 -58.8667 207° Southwest 470 541 35,000  Level Gander Center
Tue 11:30:58 AM 58.8667 -59.0000 211° Southwest 470 541 35,000  Level Gander Center
Tue 11:31:58 AM 58.7333 -59.1000 201° Southwest 470 541 35,000  Level Gander Center
Tue 11:32:58 AM 58.6167 -59.2333 211° Southwest 480 552 35,000  Level Gander Center
Tue 11:33:58 AM 58.5000 -59.3333 204° Southwest 480 552 35,000  Level Gander Center
Tue 11:34:58 AM 58.3833 -59.4667 211° Southwest 480 552 35,000  Level Gander Center
Tue 11:35:58 AM 58.2833 -59.5667 208° Southwest 470 541 35,000  Level Gander Center
Tue 11:36:58 AM 58.1667 -59.7000 211° Southwest 480 552 35,000  Level Gander Center
Tue 11:37:58 AM 58.0333 -59.8000 202° Southwest 480 552 35,000  Level Gander Center
Tue 11:38:58 AM 57.9167 -59.9333 211° Southwest 480 552 35,000  Level Gander Center
Tue 11:39:58 AM 57.8167 -60.0333 208° Southwest 480 552 35,000  Level Gander Center
Tue 11:40:58 AM 57.7167 -60.1333 208° Southwest 480 552 35,000  Level Gander Center
Tue 11:41:58 AM 57.5833 -60.2500 205° Southwest 470 541 35,000  Level Gander Center
Tue 11:42:58 AM 57.4667 -60.3500 205° Southwest 470 541 35,000  Level Gander Center
Tue 11:43:58 AM 57.3500 -60.4833 212° Southwest 480 552 35,000  Level Gander Center
Tue 11:44:58 AM 57.2333 -60.6000 208° Southwest 470 541 35,000  Level Gander Center
Tue 11:45:58 AM 57.1167 -60.7000 205° Southwest 470 541 35,000  Level Gander Center
Tue 11:46:58 AM 57.0000 -60.8167 209° Southwest 480 552 35,000  Level Gander Center
Tue 11:49:13 AM 56.7167 -61.0500 204° Southwest 480 552 35,000  Level Moncton Center
Tue 11:49:58 AM 56.6333 -61.1333 209° Southwest 470 541 35,000  Level Gander Center
Tue 11:50:58 AM 56.5167 -61.2500 209° Southwest 470 541 35,000  Level Gander Center
Tue 11:51:58 AM 56.4000 -61.3500 205° Southwest 470 541 35,000  Level Gander Center
Tue 11:52:58 AM 56.2833 -61.4667 209° Southwest 470 541 35,000  Level Gander Center
Tue 11:53:58 AM 56.1667 -61.5500 202° Southwest 470 541 35,000  Level Gander Center
Tue 11:54:58 AM 56.0500 -61.6667 209° Southwest 470 541 35,000  Level Gander Center
Tue 11:55:58 AM 55.9333 -61.7667 206° Southwest 460 529 35,000  Level Gander Center
Tue 11:56:58 AM 55.8333 -61.8500 205° Southwest 450 518 35,000  Level Gander Center
Tue 11:57:58 AM 55.7167 -61.9667 209° Southwest 450 518 35,000  Level Gander Center
Tue 11:58:58 AM 55.6000 -62.0500 202° Southwest 440 506 35,000  Level Gander Center
Tue 11:59:58 AM 55.5000 -62.1333 205° Southwest 440 506 35,000  Level Gander Center
Tue 12:00:58 PM 55.3833 -62.2167 202° Southwest 440 506 35,000  Level Gander Center
Tue 12:01:58 PM 55.2667 -62.3333 210° Southwest 440 506 35,000  Level Gander Center
Tue 12:02:58 PM 55.1667 -62.4167 205° Southwest 440 506 35,000  Level Gander Center
Tue 12:03:58 PM 55.0500 -62.5000 202° Southwest 440 506 35,000  Level Gander Center
Tue 12:04:58 PM 54.9500 -62.5833 206° Southwest 440 506 35,000  Level Gander Center
Tue 12:05:58 PM 54.8333 -62.6667 202° Southwest 440 506 35,000  Level Gander Center
Tue 12:06:58 PM 54.7000 -62.7833 207° Southwest 440 506 35,000  Level Gander Center
Tue 12:07:58 PM 54.6000 -62.8667 206° Southwest 440 506 35,000  Level Gander Center
Tue 12:08:58 PM 54.4833 -62.9500 203° Southwest 440 506 35,000  Level Gander Center
Tue 12:09:58 PM 54.3833 -63.0333 206° Southwest 440 506 35,000  Level Gander Center
Tue 12:10:58 PM 54.2667 -63.1500 210° Southwest 440 506 35,000  Level Gander Center
Tue 12:11:58 PM 54.1667 -63.2167 201° Southwest 440 506 35,000  Level Gander Center
Tue 12:12:58 PM 54.0500 -63.3000 203° Southwest 430 495 35,000  Level Gander Center
Tue 12:13:58 PM 53.9500 -63.3833 206° Southwest 440 506 35,000  Level Gander Center
Tue 12:14:58 PM 53.8500 -63.4667 206° Southwest 420 483 35,000  Level Gander Center
Tue 12:15:58 PM 53.7333 -63.5667 207° Southwest 430 495 35,000  Level Gander Center
Tue 12:16:58 PM 53.6167 -63.6500 203° Southwest 420 483 35,000  Level Gander Center
Tue 12:17:58 PM 53.5000 -63.7333 203° Southwest 430 495 35,000  Level Gander Center
Tue 12:18:58 PM 53.4000 -63.8000 202° Southwest 430 495 35,000  Level Gander Center
Tue 12:19:58 PM 53.2833 -63.8833 203° Southwest 430 495 35,000  Level Gander Center
Tue 12:20:58 PM 53.1833 -63.9667 207° Southwest 430 495 35,000  Level Gander Center
Tue 12:21:58 PM 53.0667 -64.0667 207° Southwest 430 495 35,000  Level Gander Center
Tue 12:22:58 PM 52.9667 -64.1333 202° Southwest 430 495 35,000  Level Gander Center
Tue 12:23:58 PM 52.8667 -64.2167 207° Southwest 430 495 35,000  Level Gander Center
Tue 12:24:58 PM 52.7333 -64.3000 201° Southwest 430 495 35,000  Level Gander Center
Tue 12:25:58 PM 52.6333 -64.3667 202° Southwest 430 495 35,000  Level Gander Center
Tue 12:26:58 PM 52.5167 -64.4500 203° Southwest 430 495 35,000  Level Gander Center
Tue 12:27:58 PM 52.4167 -64.5500 211° Southwest 420 483 35,000  Level Gander Center
Tue 12:28:58 PM 52.3167 -64.6167 202° Southwest 430 495 35,000  Level Gander Center
Tue 12:29:58 PM 52.2000 -64.7000 204° Southwest 430 495 35,000  Level Gander Center
Tue 12:30:58 PM 52.0833 -64.7667 199° South 430 495 35,000  Level Gander Center
Tue 12:31:58 PM 51.9833 -64.8333 202° Southwest 420 483 35,000  Level Gander Center
Tue 12:32:58 PM 51.8667 -64.9167 204° Southwest 420 483 35,000  Level Gander Center
Tue 12:33:58 PM 51.7667 -64.9833 202° Southwest 420 483 35,000  Level Gander Center
Tue 12:34:58 PM 51.6667 -65.0500 202° Southwest 420 483 35,000  Level Gander Center
Tue 12:36:13 PM 51.5333 -65.1500 205° Southwest 420 483 35,000  Level Moncton Center
Tue 12:37:58 PM 51.3333 -65.3000 205° Southwest 420 483 35,000  Level Gander Center
Tue 12:38:58 PM 51.2167 -65.3667 200° South 420 483 35,000  Level Gander Center
Tue 12:39:58 PM 51.1167 -65.4333 203° Southwest 420 483 35,000  Level Gander Center
Tue 12:40:58 PM 51.0167 -65.5167 208° Southwest 420 483 35,000  Level Gander Center
Tue 12:41:58 PM 50.9167 -65.5833 203° Southwest 430 495 35,000  Level Gander Center
Tue 12:42:58 PM 50.7833 -65.6500 198° South 430 495 35,000  Level Gander Center
Tue 12:43:58 PM 50.6833 -65.7167 203° Southwest 430 495 35,000  Level Gander Center
Tue 12:44:58 PM 50.5667 -65.8167 209° Southwest 430 495 35,000  Level Gander Center
Tue 12:45:58 PM 50.4500 -65.8833 200° South 440 506 35,000  Level Gander Center
Tue 12:46:58 PM 50.3500 -65.9500 203° Southwest 440 506 35,000  Level Gander Center
Tue 12:47:58 PM 50.2167 -66.0167 198° South 440 506 35,000  Level Gander Center
Tue 12:48:58 PM 50.1167 -66.0833 203° Southwest 440 506 35,000  Level Gander Center
Tue 12:54:30 PM 49.4970 -66.4910 203° Southwest 441 507 35,000  Level FlightAware ADS-B
Tue 12:54:58 PM 49.4440 -66.5240 202° Southwest 442 509 35,000  Level FlightAware ADS-B
Tue 12:55:41 PM 49.3640 -66.5740 202° Southwest 443 510 35,000  Level FlightAware ADS-B
Tue 12:56:14 PM 49.3010 -66.6130 202° Southwest 445 512 35,000  Level FlightAware ADS-B
Tue 12:56:49 PM 49.2380 -66.6520 202° Southwest 445 512 35,000  Level FlightAware ADS-B
Tue 12:57:53 PM 49.1340 -66.7160 202° Southwest 445 512 35,000  Level FlightAware ADS-B
Tue 12:58:22 PM 49.0550 -66.7640 202° Southwest 447 514 35,000  Level FlightAware ADS-B
Tue 12:59:33 PM 48.9180 -66.8480 202° Southwest 450 518 35,000  Level FlightAware ADS-B
Tue 01:00:07 PM 48.8550 -66.8860 202° Southwest 451 519 35,000  Level FlightAware ADS-B
Tue 01:00:39 PM 48.7920 -66.9240 202° Southwest 451 519 35,000  Level FlightAware ADS-B
Tue 01:01:11 PM 48.7290 -66.9620 202° Southwest 451 519 35,000  Level FlightAware ADS-B
Tue 01:02:14 PM 48.6070 -67.0350 202° Southwest 450 518 35,000  Level FlightAware ADS-B
Tue 01:03:01 PM 48.5150 -67.0910 202° Southwest 451 519 35,000  Level FlightAware ADS-B
Tue 01:04:08 PM 48.3850 -67.1680 201° Southwest 452 520 35,000  Level FlightAware ADS-B
Tue 01:04:45 PM 48.3140 -67.2100 201° Southwest 452 520 35,000  Level FlightAware ADS-B
Tue 01:05:29 PM 48.2290 -67.2610 202° Southwest 452 520 35,000  Level FlightAware ADS-B
Tue 01:06:05 PM 48.1580 -67.3020 201° Southwest 453 521 35,000  Level FlightAware ADS-B
Tue 01:06:39 PM 48.0930 -67.3410 202° Southwest 454 522 35,000  Level FlightAware ADS-B
Tue 01:07:10 PM 48.0310 -67.3770 201° Southwest 455 524 35,000  Level FlightAware ADS-B
Tue 01:08:12 PM 47.9130 -67.4460 201° Southwest 456 525 35,000  Level FlightAware ADS-B
Tue 01:08:40 PM 47.8570 -67.4790 202° Southwest 456 525 35,000  Level FlightAware ADS-B
Tue 01:09:13 PM 47.7980 -67.5130 201° Southwest 456 525 35,000  Level FlightAware ADS-B
Tue 01:10:07 PM 47.6870 -67.5770 201° Southwest 457 526 35,000  Level FlightAware ADS-B
Tue 01:10:42 PM 47.6150 -67.6190 201° Southwest 458 527 35,000  Level FlightAware ADS-B
Tue 01:11:03 PM 47.5790 -67.6390 201° Southwest 458 527 35,000  Level FlightAware ADS-B
Tue 01:11:47 PM 47.4860 -67.6930 201° Southwest 459 528 35,000  Level FlightAware ADS-B
Tue 01:12:38 PM 47.3947 -67.7449 201° Southwest 458 527 35,000  Level FlightAware ADS-B
Tue 01:13:22 PM 47.3160 -67.7900 201° Southwest 457 526 35,000  Level FlightAware ADS-B
Tue 01:14:10 PM 47.2045 -67.8529 201° Southwest 456 525 35,000  Level FlightAware ADS-B
Tue 01:15:04 PM 47.1230 -67.8990 201° Southwest 454 522 35,000  Level FlightAware ADS-B
Tue 01:15:55 PM 47.0112 -67.9619 201° Southwest 452 520 35,000  Level FlightAware ADS-B
Tue 01:16:27 PM 46.9440 -67.9990 201° Southwest 451 519 35,000  Level FlightAware ADS-B
Tue 01:17:19 PM 46.8370 -68.0594 201° Southwest 450 518 35,000  Level FlightAware ADS-B
Tue 01:18:09 PM 46.7430 -68.1110 201° Southwest 453 521 35,000  Level FlightAware ADS-B
Tue 01:19:19 PM 46.5971 -68.1674 195° South 455 524 35,000  Level FlightAware ADS-B
Tue 01:20:54 PM 46.4034 -68.2477 196° South 455 524 35,000  Level FlightAware ADS-B
Tue 01:21:33 PM 46.3291 -68.2787 196° South 456 525 35,000  Level FlightAware ADS-B
Tue 01:22:13 PM 46.2454 -68.3134 196° South 456 525 35,000  Level FlightAware ADS-B
Tue 01:22:46 PM 46.1781 -68.3409 196° South 456 525 35,000  Level FlightAware ADS-B
Tue 01:23:16 PM 46.1198 -68.3647 196° South 456 525 35,000  Level FlightAware ADS-B
Tue 01:23:53 PM 46.0420 -68.3963 196° South 456 525 35,000  Level FlightAware ADS-B
Tue 01:24:32 PM 45.9638 -68.4283 196° South 456 525 35,000  Level FlightAware ADS-B
Tue 01:25:06 PM 45.8945 -68.4563 196° South 455 524 35,000  Level FlightAware ADS-B
Tue 01:25:43 PM 45.8184 -68.4870 196° South 454 522 35,000  Level FlightAware ADS-B
Tue 01:26:13 PM 45.7581 -68.5110 196° South 455 524 35,000  Level FlightAware ADS-B (YSBK / BWU)
Tue 01:26:44 PM 45.6964 -68.5359 196° South 454 522 35,000  Level FlightAware ADS-B (YSBK / BWU)
Tue 01:27:19 PM 45.6326 -68.5616 196° South 454 522 35,000  Level FlightAware ADS-B
Tue 01:27:54 PM 45.5549 -68.5927 196° South 456 525 35,000  Level FlightAware ADS-B (YSBK / BWU)
Tue 01:28:26 PM 45.4944 -68.6169 196° South 457 526 35,000  Level FlightAware ADS-B
Tue 01:28:59 PM 45.4216 -68.6458 196° South 458 527 35,000  Level FlightAware ADS-B
Tue 01:29:32 PM 45.3539 -68.6727 196° South 458 527 35,000  Level FlightAware ADS-B (YSBK / BWU)
Tue 01:30:04 PM 45.2907 -68.6976 196° South 459 528 35,000  Level FlightAware ADS-B (YSBK / BWU)
Tue 01:31:13 PM 45.1497 -68.7534 196° South 461 531 35,000  Level FlightAware ADS-B (YSBK / BWU)
Tue 01:31:43 PM 45.1205 -68.7648 195° South 462 532 35,000  Level FlightAware ADS-B (YSBK / BWU)
Tue 01:32:26 PM 44.9979 -68.8129 195° South 463 533 35,000  Level FlightAware ADS-B (YSBK / BWU)
Tue 01:33:09 PM 44.9125 -68.8462 195° South 464 534 35,000  Level FlightAware ADS-B
Tue 01:33:46 PM 44.8463 -68.8749 197° South 459 528 35,000  Level FlightAware ADS-B (YSBK / BWU)
Tue 01:34:26 PM 44.7582 -68.9304 204° Southwest 455 524 35,000  Level FlightAware ADS-B (YSBK / BWU)
Tue 01:34:57 PM 44.7079 -68.9648 206° Southwest 456 525 35,000  Level FlightAware ADS-B
Tue 01:35:31 PM 44.6353 -69.0146 206° Southwest 456 525 35,000  Level FlightAware ADS-B (YSBK / BWU)
Tue 01:36:04 PM 44.5804 -69.0521 206° Southwest 457 526 35,000  Level FlightAware ADS-B (YSBK / BWU)
Tue 01:36:45 PM 44.5056 -69.1030 206° Southwest 458 527 35,000  Level FlightAware ADS-B (YSBK / BWU)
Tue 01:37:16 PM 44.4355 -69.1502 206° Southwest 458 527 35,000  Level FlightAware ADS-B (YSBK / BWU)
Tue 01:37:55 PM 44.3875 -69.1825 206° Southwest 458 527 35,000  Level FlightAware ADS-B (YSBK / BWU)
Tue 01:38:26 PM 44.3268 -69.2234 206° Southwest 458 527 35,000  Level FlightAware ADS-B (YSBK / BWU)
Tue 01:39:01 PM 44.2347 -69.2851 206° Southwest 452 520 35,000  Level FlightAware ADS-B
Tue 01:39:31 PM 44.1785 -69.3228 206° Southwest 451 519 35,000  Level FlightAware ADS-B
Tue 01:40:10 PM 44.1032 -69.3730 206° Southwest 452 520 35,000  Level FlightAware ADS-B
Tue 01:40:41 PM 44.0431 -69.4130 206° Southwest 452 520 35,000  Level FlightAware ADS-B
Tue 01:41:18 PM 43.9723 -69.4600 206° Southwest 459 528 35,000  Level FlightAware ADS-B (EPKK / KRK)
Tue 01:41:49 PM 43.9140 -69.4986 206° Southwest 460 529 35,000  Level FlightAware ADS-B
Tue 01:42:19 PM 43.8569 -69.5364 205° Southwest 452 520 35,000  Level FlightAware ADS-B
Tue 01:43:01 PM 43.7757 -69.5899 205° Southwest 452 520 35,000  Level FlightAware ADS-B
Tue 01:43:32 PM 43.7203 -69.6264 205° Southwest 458 527 35,000  Level FlightAware ADS-B (EPKK / KRK)
Tue 01:44:12 PM 43.6398 -69.6791 205° Southwest 457 526 35,000  Level FlightAware ADS-B (EPKK / KRK)
Tue 01:44:29 PM 43.6078 -69.7001 205° Southwest 449 517 35,000  Level FlightAware ADS-B
Tue 01:45:06 PM 43.5371 -69.7463 205° Southwest 455 524 35,000  Level FlightAware ADS-B (EPKK / KRK)
Tue 01:45:36 PM 43.4806 -69.7831 205° Southwest 454 522 35,000  Level FlightAware ADS-B (EPKK / KRK)
Tue 01:46:07 PM 43.4213 -69.8209 205° Southwest 457 526 35,000  Level FlightAware ADS-B (EPKK / KRK)
Tue 01:46:35 PM 43.3623 -69.8427 195° South 473 544 35,000  Level FlightAware ADS-B (EPKK / KRK)
Tue 01:47:08 PM 43.2916 -69.8551 187° South 478 550 35,000  Level FlightAware ADS-B (EPKK / KRK)
Tue 01:47:39 PM 43.2225 -69.8646 186° South 478 550 35,000  Level FlightAware ADS-B (EPKK / KRK)
Tue 01:48:11 PM 43.1538 -69.8739 186° South 471 542 35,000  Level FlightAware ADS-B
Tue 01:48:43 PM 43.0829 -69.8840 186° South 479 551 35,000  Level FlightAware ADS-B (EPKK / KRK)
Tue 01:49:20 PM 43.0010 -69.8959 186° South 471 542 35,000  Level FlightAware ADS-B
Tue 01:49:50 PM 42.9341 -69.9057 186° South 472 543 35,000  Level FlightAware ADS-B
Tue 01:50:22 PM 42.8662 -69.9157 186° South 480 552 35,000  Level FlightAware ADS-B (EPKK / KRK)
Tue 01:50:52 PM 42.7983 -69.9256 186° South 480 552 35,000  Level FlightAware ADS-B (EPKK / KRK)
Tue 01:51:23 PM 42.7299 -69.9355 186° South 480 552 35,000  Level FlightAware ADS-B (EPKK / KRK)
Tue 01:51:54 PM 42.6619 -69.9453 186° South 481 554 35,000  Level FlightAware ADS-B (EPKK / KRK)
Tue 01:52:25 PM 42.5921 -69.9554 186° South 481 554 35,000  Level FlightAware ADS-B (EPKK / KRK)
Tue 01:52:55 PM 42.5314 -69.9641 186° South 483 556 35,000  Level FlightAware ADS-B (EPKK / KRK)
Tue 01:53:26 PM 42.4599 -69.9742 186° South 484 557 35,000  Level FlightAware ADS-B (EPKK / KRK)
Tue 01:53:56 PM 42.3923 -69.9838 186° South 485 558 35,000 194 Level FlightAware ADS-B (EPKK / KRK)
Tue 01:54:28 PM 42.3191 -69.9943 186° South 486 559 35,200 581 Climbing FlightAware ADS-B (EPKK / KRK)
Tue 01:54:58 PM 42.2578 -70.0031 186° South 487 560 35,600 689 Climbing FlightAware ADS-B (EPKK / KRK)
Tue 01:55:29 PM 42.1837 -70.0136 186° South 485 558 35,900 358 Climbing FlightAware ADS-B (EPKK / KRK)
Tue 01:56:05 PM 42.1034 -70.0249 186° South 485 558 36,000 109 Climbing FlightAware ADS-B (SBBR / BSB)
Tue 01:56:24 PM 42.0705 -70.0304 187° South 474 545 36,000  Level FlightAware ADS-B (SBBR / BSB)
Tue 01:56:39 PM 42.0297 -70.0479 198° South 454 522 36,000  Level FlightAware ADS-B (EPKK / KRK)
Tue 01:57:06 PM 41.9846 -70.0873 213° Southwest 427 491 36,000  Level FlightAware ADS-B (SBBR / BSB)
Tue 01:57:41 PM 41.9385 -70.1522 226° Southwest 411 473 36,000  Level FlightAware ADS-B
Tue 01:57:53 PM 41.9229 -70.1749 227° Southwest 415 478 36,000  Level FlightAware ADS-B (SBBR / BSB)
Tue 01:58:10 PM 41.9002 -70.2084 228° Southwest 416 479 36,000  Level FlightAware ADS-B (EPKK / KRK)
Tue 01:58:45 PM 41.8571 -70.2720 228° Southwest 415 478 36,000  Level FlightAware ADS-B (EPKK / KRK)
Tue 01:58:55 PM 41.8422 -70.2940 228° Southwest 410 472 36,000  Level FlightAware ADS-B
Tue 01:59:08 PM 41.8262 -70.3176 228° Southwest 410 472 36,000  Level FlightAware ADS-B
Tue 01:59:39 PM 41.7857 -70.3770 228° Southwest 414 476 36,000  Level FlightAware ADS-B (EPKK / KRK)
Tue 02:00:11 PM 41.7476 -70.4323 227° Southwest 414 476 36,000  Level FlightAware ADS-B (KOWD)
Tue 02:00:42 PM 41.7050 -70.4943 227° Southwest 413 475 36,000  Level FlightAware ADS-B (KOWD)
Tue 02:01:02 PM 41.6783 -70.5329 227° Southwest 407 468 36,000  Level FlightAware ADS-B
Tue 02:01:32 PM 41.6411 -70.5865 227° Southwest 412 474 36,000  Level FlightAware ADS-B (KOWD)
Tue 02:01:51 PM 41.6205 -70.6164 227° Southwest 411 473 36,000  Level FlightAware ADS-B (SBBR / BSB)
Tue 02:02:29 PM 41.5672 -70.6936 227° Southwest 411 473 36,000  Level FlightAware ADS-B (KOWD)
Tue 02:02:34 PM 41.5672 -70.6936 227° Southwest 412 474 36,000  Level FlightAware ADS-B (KOWD)
Tue 02:03:08 PM 41.5171 -70.7658 227° Southwest 411 473 36,000  Level FlightAware ADS-B (SBBR / BSB)
Tue 02:03:44 PM 41.4693 -70.8345 227° Southwest 406 467 36,000  Level FlightAware ADS-B
Tue 02:04:02 PM 41.4514 -70.8601 227° Southwest 412 474 36,000  Level FlightAware ADS-B (SBBR / BSB)
Tue 02:04:14 PM 41.4312 -70.8890 227° Southwest 406 467 36,000  Level FlightAware ADS-B
Tue 02:04:45 PM 41.3905 -70.9471 227° Southwest 406 467 36,000  Level FlightAware ADS-B
Tue 02:05:15 PM 41.3522 -71.0018 227° Southwest 406 467 36,000  Level FlightAware ADS-B
Tue 02:05:46 PM 41.3111 -71.0604 227° Southwest 405 466 36,000  Level FlightAware ADS-B
Tue 02:05:53 PM 41.3028 -71.0722 227° Southwest 410 472 36,000  Level FlightAware ADS-B (SBBR / BSB)
Tue 02:06:26 PM 41.2615 -71.1354 229° Southwest 397 457 36,000  Level FlightAware ADS-B
Tue 02:06:56 PM 41.2378 -71.1970 243° Southwest 383 441 36,000  Level FlightAware ADS-B
Tue 02:07:26 PM 41.2188 -71.2628 249° West 380 437 36,000  Level FlightAware ADS-B
Tue 02:07:56 PM 41.2006 -71.3297 250° West 379 436 36,000  Level FlightAware ADS-B
Tue 02:08:18 PM 41.1846 -71.3782 246° West 388 447 36,000  Level FlightAware ADS-B (SBBR / BSB)
Tue 02:08:41 PM 41.1648 -71.4227 239° Southwest 395 455 36,000  Level FlightAware ADS-B (SBBR / BSB)
Tue 02:09:17 PM 41.1218 -71.4917 230° Southwest 410 472 36,000  Level FlightAware ADS-B (SBBR / BSB)
Tue 02:09:48 PM 41.0820 -71.5486 227° Southwest 410 472 36,000  Level FlightAware ADS-B (SBBR / BSB)
Tue 02:10:22 PM 41.0383 -71.6103 227° Southwest 409 471 36,000  Level FlightAware ADS-B (SBBR / BSB)
Tue 02:10:52 PM 41.0034 -71.6595 227° Southwest 409 471 36,000  Level FlightAware ADS-B (SBBR / BSB)
Tue 02:11:31 PM 40.9487 -71.7368 227° Southwest 408 470 36,000  Level FlightAware ADS-B (SBBR / BSB)
Tue 02:12:13 PM 40.8969 -71.8098 227° Southwest 407 468 36,000  Level FlightAware ADS-B (SBBR / BSB)
Tue 02:12:48 PM 40.8604 -71.8611 227° Southwest 407 468 36,000  Level FlightAware ADS-B (KSNC)
Tue 02:13:39 PM 40.7923 -71.9568 227° Southwest 406 467 36,000  Level FlightAware ADS-B (KSNC)
Tue 02:14:40 PM 40.7076 -72.0752 227° Southwest 406 467 36,000  Level FlightAware ADS-B (KSNC)
Tue 02:15:14 PM 40.6625 -72.1402 228° Southwest 404 465 36,000  Level FlightAware ADS-B (KSNC)
Tue 02:15:58 PM 40.6095 -72.2173 228° Southwest 404 465 36,000  Level FlightAware ADS-B (KSNC)
Tue 02:16:31 PM 40.5660 -72.2799 228° Southwest 403 464 36,000  Level FlightAware ADS-B (KSNC)
Tue 02:17:02 PM 40.5263 -72.3368 227° Southwest 402 463 36,000  Level FlightAware ADS-B (KSNC)
Tue 02:17:43 PM 40.4756 -72.4092 227° Southwest 401 461 36,000  Level FlightAware ADS-B (KSNC)
Tue 02:18:13 PM 40.4385 -72.4621 227° Southwest 401 461 36,000  Level FlightAware ADS-B (KSNC)
Tue 02:18:43 PM 40.4004 -72.5164 227° Southwest 401 461 36,000  Level FlightAware ADS-B (KSNC)
Tue 02:19:13 PM 40.3636 -72.5688 227° Southwest 400 460 36,000  Level FlightAware ADS-B (KSNC)
Tue 02:19:21 PM 40.3529 -72.5841 227° Southwest 394 453 36,000  Level FlightAware ADS-B (KWWD)
Tue 02:19:39 PM 40.3304 -72.6161 227° Southwest 394 453 36,000  Level FlightAware ADS-B (KWWD)
Tue 02:20:10 PM 40.2917 -72.6712 227° Southwest 400 460 36,000  Level FlightAware ADS-B (KSNC)
Tue 02:20:41 PM 40.2539 -72.7247 227° Southwest 399 459 36,000  Level FlightAware ADS-B (KSNC)
Tue 02:21:12 PM 40.2137 -72.7814 227° Southwest 400 460 36,000  Level FlightAware ADS-B (KSNC)
Tue 02:21:45 PM 40.1766 -72.8339 227° Southwest 401 461 36,000  Level FlightAware ADS-B (KSNC)
Tue 02:22:16 PM 40.1335 -72.8946 227° Southwest 402 463 36,000  Level FlightAware ADS-B (KWWD)
Tue 02:22:46 PM 40.0956 -72.9478 227° Southwest 402 463 36,000  Level FlightAware ADS-B (KWWD)
Tue 02:23:18 PM 40.0559 -73.0035 227° Southwest 403 464 36,000  Level FlightAware ADS-B (KSNC)
Tue 02:23:59 PM 40.0075 -73.0714 227° Southwest 403 464 36,000  Level FlightAware ADS-B (KSNC)
Tue 02:24:41 PM 39.9501 -73.1517 227° Southwest 403 464 36,000  Level FlightAware ADS-B (KSNC)
Tue 02:25:17 PM 39.9033 -73.2169 227° Southwest 403 464 36,000  Level FlightAware ADS-B (KWWD)
Tue 02:26:02 PM 39.8789 -73.2509 227° Southwest 403 464 36,000  Level FlightAware ADS-B (KSNC)
Tue 02:26:36 PM 39.8037 -73.3552 227° Southwest 403 464 36,000  Level FlightAware ADS-B (KWWD)
Tue 02:27:08 PM 39.7633 -73.4112 227° Southwest 403 464 36,000  Level FlightAware ADS-B (KWWD)
Tue 02:27:47 PM 39.7132 -73.4805 227° Southwest 402 463 36,000  Level FlightAware ADS-B (KWWD)
Tue 02:28:17 PM 39.6753 -73.5328 227° Southwest 402 463 36,000  Level FlightAware ADS-B (KWWD)
Tue 02:28:48 PM 39.6358 -73.5872 227° Southwest 403 464 36,000  Level FlightAware ADS-B (KWWD)
Tue 02:29:26 PM 39.5868 -73.6545 227° Southwest 403 464 36,000  Level FlightAware ADS-B (KWWD)
Tue 02:29:57 PM 39.5477 -73.7081 227° Southwest 403 464 36,000  Level FlightAware ADS-B (KWWD)
Tue 02:30:34 PM 39.5004 -73.7730 227° Southwest 404 465 36,000  Level FlightAware ADS-B (KWWD)
Tue 02:31:07 PM 39.4572 -73.8319 227° Southwest 405 466 36,000  Level FlightAware ADS-B (KWWD)
Tue 02:31:37 PM 39.4188 -73.8841 226° Southwest 405 466 36,000  Level FlightAware ADS-B (KWWD)
Tue 02:32:15 PM 39.3694 -73.9515 226° Southwest 401 461 36,000  Level FlightAware ADS-B (KWWD)
Tue 02:32:57 PM 39.3157 -74.0245 226° Southwest 401 461 36,000  Level FlightAware ADS-B (KWWD)
Tue 02:33:33 PM 39.2698 -74.0866 226° Southwest 401 461 36,000  Level FlightAware ADS-B (KWWD)
Tue 02:34:06 PM 39.2259 -74.1460 226° Southwest 402 463 36,000  Level FlightAware ADS-B (KWWD)
Tue 02:34:37 PM 39.1859 -74.1999 226° Southwest 402 463 36,000  Level FlightAware ADS-B (KWWD)
Tue 02:35:07 PM 39.1469 -74.2525 226° Southwest 402 463 36,000  Level FlightAware ADS-B (KWWD)
Tue 02:35:37 PM 39.1076 -74.3054 226° Southwest 403 464 36,000  Level FlightAware ADS-B (KWWD)
Tue 02:36:18 PM 39.0544 -74.3768 226° Southwest 403 464 36,000  Level FlightAware ADS-B (KWWD)
Tue 02:36:48 PM 39.0148 -74.4297 226° Southwest 403 464 36,000  Level FlightAware ADS-B (KWWD)
Tue 02:37:18 PM 38.9761 -74.4815 226° Southwest 403 464 36,000  Level FlightAware ADS-B (KWWD)
Tue 02:37:55 PM 38.9247 -74.5455 224° Southwest 411 473 36,000  Level FlightAware ADS-B (KWWD)
Tue 02:38:37 PM 38.8639 -74.6116 220° Southwest 419 482 36,000  Level FlightAware ADS-B (KWWD)
Tue 02:39:22 PM 38.7963 -74.6834 220° Southwest 420 483 36,000  Level FlightAware ADS-B (KWWD)
Tue 02:39:57 PM 38.7444 -74.7388 220° Southwest 420 483 36,000  Level FlightAware ADS-B (EGAA / BFS)
Tue 02:40:35 PM 38.7014 -74.7847 220° Southwest 421 484 36,000  Level FlightAware ADS-B (EGAA / BFS)
Tue 02:41:07 PM 38.6395 -74.8506 220° Southwest 422 486 36,000  Level FlightAware ADS-B (KWWD)
Tue 02:41:37 PM 38.5948 -74.8981 220° Southwest 422 486 36,000  Level FlightAware ADS-B (KWWD)
Tue 02:42:09 PM 38.5467 -74.9492 220° Southwest 424 488 36,000  Level FlightAware ADS-B (KWWD)
Tue 02:42:40 PM 38.5012 -74.9973 220° Southwest 424 488 36,000  Level FlightAware ADS-B (EGAA / BFS)
Tue 02:43:16 PM 38.4459 -75.0557 220° Southwest 425 489 36,000  Level FlightAware ADS-B (EGAA / BFS)
Tue 02:43:48 PM 38.4157 -75.0876 220° Southwest 426 490 36,000  Level FlightAware ADS-B (EGAA / BFS)
Tue 02:44:38 PM 38.3212 -75.1871 220° Southwest 421 484 36,000  Level FlightAware ADS-B (KWWD)
Tue 02:45:17 PM 38.2610 -75.2503 219° Southwest 421 484 36,000  Level FlightAware ADS-B (KWWD)
Tue 02:45:47 PM 38.2154 -75.2980 219° Southwest 420 483 36,000  Level FlightAware ADS-B (KWWD)
Tue 02:46:17 PM 38.1701 -75.3454 219° Southwest 419 482 36,000  Level FlightAware ADS-B (KWWD)
Tue 02:46:47 PM 38.1251 -75.3924 219° Southwest 426 490 36,000  Level FlightAware ADS-B (EGAA / BFS)
Tue 02:47:19 PM 38.0758 -75.4434 219° Southwest 429 494 36,000  Level FlightAware ADS-B (EGAA / BFS)
Tue 02:47:28 PM 38.0603 -75.4577 216° Southwest 429 494 36,000  Level FlightAware ADS-B (KWWD)
Tue 02:47:40 PM 38.0408 -75.4728 211° Southwest 434 499 36,000  Level FlightAware ADS-B (KWWD)
Tue 02:48:10 PM 37.9862 -75.5114 209° Southwest 445 512 36,000  Level FlightAware ADS-B (EGAA / BFS)
Tue 02:48:41 PM 37.9305 -75.5511 209° Southwest 446 513 36,000  Level FlightAware ADS-B (EGAA / BFS)
Tue 02:49:19 PM 37.8632 -75.6008 210° Southwest 446 513 36,000  Level FlightAware ADS-B (KWWD)
Tue 02:49:37 PM 37.8303 -75.6233 208° Southwest 444 511 36,000  Level FlightAware ADS-B (KWWD)
Tue 02:50:13 PM 37.7864 -75.6528 208° Southwest 451 519 36,000  Level FlightAware ADS-B (EGAA / BFS)
Tue 02:50:44 PM 37.7073 -75.7063 208° Southwest 445 512 36,000  Level FlightAware ADS-B (KWWD)
Tue 02:50:50 PM 37.7235 -75.6953 28° Northeast 452 520 36,000  Level FlightAware ADS-B (EGAA / BFS)
Tue 02:51:20 PM 37.6426 -75.7503 208° Southwest 445 512 36,000  Level FlightAware ADS-B (KWWD)
Tue 02:51:50 PM 37.5859 -75.7889 208° Southwest 446 513 36,000  Level FlightAware ADS-B (KWWD)
Tue 02:52:26 PM 37.5200 -75.8337 208° Southwest 453 521 36,000  Level FlightAware ADS-B (KWWD)
Tue 02:52:58 PM 37.4594 -75.8747 208° Southwest 454 522 36,000  Level FlightAware ADS-B (KWWD)
Tue 02:53:29 PM 37.4021 -75.9133 208° Southwest 454 522 36,000  Level FlightAware ADS-B (KWWD)
Tue 02:54:01 PM 37.3443 -75.9520 208° Southwest 454 522 36,000  Level FlightAware ADS-B (KWWD)
Tue 02:54:40 PM 37.2718 -76.0006 208° Southwest 454 522 36,000  Level FlightAware ADS-B (KWWD)
Tue 02:55:10 PM 37.2155 -76.0382 208° Southwest 454 522 36,000  Level FlightAware ADS-B (KWWD)
Tue 02:55:40 PM 37.1603 -76.0751 208° Southwest 455 524 36,000  Level FlightAware ADS-B (KWWD)
Tue 02:56:12 PM 37.1001 -76.1152 208° Southwest 456 525 36,000  Level FlightAware ADS-B (KWWD)
Tue 02:57:27 PM 36.9820 -76.1940 208° Southwest 456 525 36,000  Level FlightAware ADS-B
Tue 02:57:53 PM 36.9124 -76.2399 208° Southwest 456 525 36,000  Level FlightAware ADS-B (KWWD)
Tue 02:58:34 PM 36.8356 -76.2906 208° Southwest 459 528 36,000  Level FlightAware ADS-B (KWWD)
Tue 02:59:34 PM 36.7250 -76.3640 208° Southwest 458 527 36,000  Level FlightAware ADS-B
Tue 03:00:02 PM 36.6740 -76.3970 207° Southwest 459 528 36,000  Level FlightAware ADS-B
Tue 03:01:09 PM 36.5504 -76.4783 208° Southwest 459 528 36,000  Level FlightAware ADS-B (KWWD)
Tue 03:01:42 PM 36.4850 -76.5210 208° Southwest 458 527 36,000  Level FlightAware ADS-B
Tue 03:02:37 PM 36.3808 -76.5891 208° Southwest 453 521 36,000  Level FlightAware ADS-B (KWWD)
Tue 03:03:12 PM 36.3170 -76.6310 208° Southwest 458 527 36,000  Level FlightAware ADS-B
Tue 03:03:53 PM 36.2410 -76.6800 207° Southwest 458 527 36,000  Level FlightAware ADS-B
Tue 03:04:32 PM 36.1660 -76.7290 208° Southwest 458 527 36,000  Level FlightAware ADS-B
Tue 03:05:03 PM 36.1100 -76.7650 207° Southwest 457 526 36,000  Level FlightAware ADS-B
Tue 03:06:03 PM 36.0000 -76.8360 208° Southwest 457 526 36,000  Level FlightAware ADS-B
Tue 03:07:03 PM 35.8880 -76.9080 208° Southwest 457 526 36,000  Level FlightAware ADS-B
Tue 03:07:33 PM 35.8370 -76.9400 207° Southwest 457 526 36,000  Level FlightAware ADS-B
Tue 03:07:57 PM 35.7980 -76.9640 207° Southwest 457 526 36,000  Level FlightAware ADS-B
Tue 03:08:34 PM 35.7890 -76.9720 216° Southwest 194 223 36,000  Level FlightAware ADS-B
Tue 03:09:14 PM 35.7080 -77.0230 207° Southwest 456 525 36,000  Level FlightAware ADS-B
Tue 03:09:41 PM 35.6660 -77.0510 208° Southwest 456 525 36,000  Level FlightAware ADS-B
Tue 03:10:21 PM 35.5900 -77.0990 207° Southwest 456 525 36,000  Level FlightAware ADS-B
Tue 03:11:25 PM 35.4890 -77.1660 208° Southwest 456 525 36,000  Level FlightAware ADS-B
Tue 03:11:49 PM 35.4510 -77.1900 207° Southwest 456 525 36,000  Level FlightAware ADS-B
Tue 03:12:23 PM 35.3970 -77.2250 208° Southwest 456 525 36,000  Level FlightAware ADS-B
Tue 03:13:00 PM 35.3380 -77.2640 208° Southwest 456 525 36,000  Level FlightAware ADS-B
Tue 03:13:59 PM 35.1032 -77.4068 206° Southwest 458 527 36,000  Level FlightAware ADS-B
Tue 03:14:33 PM 35.0355 -77.4485 207° Southwest 459 528 36,000  Level FlightAware ADS-B
Tue 03:15:13 PM 34.9587 -77.4859 202° Southwest 466 536 36,000  Level FlightAware ADS-B
Tue 03:15:53 PM 34.8728 -77.5158 196° South 473 544 36,000  Level FlightAware ADS-B
Tue 03:16:31 PM 34.7942 -77.5413 195° South 474 545 36,000  Level FlightAware ADS-B
Tue 03:17:03 PM 34.7262 -77.5639 195° South 473 544 36,000  Level FlightAware ADS-B
Tue 03:17:33 PM 34.6642 -77.5848 196° South 473 544 36,000  Level FlightAware ADS-B
Tue 03:18:03 PM 34.6011 -77.6065 196° South 473 544 36,000  Level FlightAware ADS-B
Tue 03:18:33 PM 34.5355 -77.6291 196° South 473 544 36,000  Level FlightAware ADS-B
Tue 03:19:33 PM 34.4106 -77.6717 196° South 474 545 36,000  Level FlightAware ADS-B
Tue 03:20:03 PM 34.3478 -77.6931 196° South 474 545 36,000  Level FlightAware ADS-B
Tue 03:21:01 PM 34.2244 -77.7355 196° South 474 545 36,000  Level FlightAware ADS-B
Tue 03:22:05 PM 34.1700 -77.7540 196° South 473 544 36,000  Level FlightAware ADS-B
Tue 03:22:20 PM 34.1370 -77.7660 197° South 473 544 36,000  Level FlightAware ADS-B
Tue 03:23:00 PM 34.0470 -77.7970 196° South 473 544 36,000  Level FlightAware ADS-B
Tue 03:24:05 PM 33.9210 -77.8400 196° South 473 544 36,000  Level FlightAware ADS-B
Tue 03:24:55 PM 33.8030 -77.8810 196° South 474 545 36,000  Level FlightAware ADS-B
Tue 03:25:55 PM 33.6680 -77.9270 196° South 475 547 36,000  Level FlightAware ADS-B
Tue 03:26:25 PM 33.6020 -77.9500 196° South 476 548 36,000  Level FlightAware ADS-B
Tue 03:27:35 PM 33.4400 -78.0050 196° South 478 550 36,000  Level FlightAware ADS-B
Tue 03:28:35 PM 33.3210 -78.0450 196° South 477 549 36,000  Level FlightAware ADS-B
Tue 03:28:55 PM 33.2820 -78.0580 196° South 477 549 36,000  Level FlightAware ADS-B
Tue 03:29:25 PM 33.2090 -78.0830 196° South 478 550 36,000  Level FlightAware ADS-B
Tue 03:29:45 PM 33.1790 -78.0930 196° South 478 550 36,000  Level FlightAware ADS-B
Tue 03:30:20 PM 33.0960 -78.1210 196° South 478 550 36,000  Level FlightAware ADS-B
Tue 03:31:20 PM 32.9140 -78.1830 196° South 479 551 36,000  Level FlightAware ADS-B
Tue 03:31:50 PM 32.8540 -78.2020 195° South 479 551 36,000  Level FlightAware ADS-B
Tue 03:32:20 PM 32.7860 -78.2250 196° South 479 551 36,000  Level FlightAware ADS-B
Tue 03:32:55 PM 32.7100 -78.2500 195° South 480 552 36,000  Level FlightAware ADS-B
Tue 03:33:50 PM 32.5930 -78.2890 196° South 479 551 36,000  Level FlightAware ADS-B
Tue 03:34:35 PM 32.4970 -78.3210 196° South 480 552 36,000  Level FlightAware ADS-B
Tue 03:35:10 PM 32.4260 -78.3450 196° South 479 551 36,000  Level FlightAware ADS-B
Tue 03:35:45 PM 32.3480 -78.3710 196° South 479 551 36,000  Level FlightAware ADS-B
Tue 03:36:53 PM 32.2180 -78.4130 195° South 478 550 36,000  Level FlightAware ADS-B
Tue 03:37:29 PM 32.1530 -78.4340 195° South 478 550 36,000  Level FlightAware ADS-B
Tue 03:38:34 PM 32.0350 -78.4710 195° South 478 550 36,000  Level FlightAware ADS-B
Tue 03:39:46 PM 31.9040 -78.5120 195° South 478 550 36,000  Level FlightAware ADS-B
Tue 03:40:47 PM 31.7930 -78.5470 195° South 478 550 36,000  Level FlightAware ADS-B
Tue 03:41:48 PM 31.6820 -78.5820 195° South 478 550 36,000  Level FlightAware ADS-B
Tue 03:42:24 PM 31.6170 -78.6030 195° South 478 550 36,000  Level FlightAware ADS-B
Tue 03:43:00 PM 31.5520 -78.6230 195° South 478 550 36,000  Level FlightAware ADS-B
Tue 03:43:36 PM 31.4860 -78.6440 195° South 478 550 36,000  Level FlightAware ADS-B
Tue 03:44:00 PM 31.4430 -78.6580 196° South 478 550 36,000  Level FlightAware ADS-B
Tue 03:44:36 PM 31.3770 -78.6780 195° South 478 550 36,000  Level FlightAware ADS-B
Tue 03:45:36 PM 31.2680 -78.7120 195° South 478 550 36,000  Level FlightAware ADS-B
Tue 03:46:24 PM 31.1810 -78.7400 195° South 478 550 36,000  Level FlightAware ADS-B
Tue 03:47:18 PM 30.8786 -78.8481 195° South 475 547 36,000  Level Jacksonville Center
Tue 03:48:18 PM 30.7528 -78.8897 196° South 475 547 36,000  Level Jacksonville Center
Tue 03:49:18 PM 30.6286 -78.9311 196° South 480 552 36,000  Level Jacksonville Center
Tue 03:49:51 PM 30.5567 -78.9508 193° South 466 536 36,000  Level Miami Center
Tue 03:50:51 PM 30.4731 -78.9781 196° South 458 527 36,000  Level Miami Center
Tue 03:51:51 PM 30.3200 -79.0375 199° South 463 533 36,000  Level Miami Center
Tue 03:52:51 PM 30.1942 -79.0925 201° Southwest 477 549 36,000  Level Miami Center
Tue 03:53:51 PM 30.0764 -79.1475 202° Southwest 472 543 36,000  Level Miami Center
Tue 03:54:51 PM 29.9419 -79.2069 201° Southwest 478 550 36,000  Level Miami Center
Tue 03:55:51 PM 29.8203 -79.2639 202° Southwest 473 544 36,000  Level Miami Center
Tue 04:01:05 PM 29.1830 -79.5150 202° Southwest 36,000  Level FlightAware ADS-B
Tue 04:01:45 PM 29.0950 -79.5480 198° South 463 533 36,000  Level FlightAware ADS-B
Tue 04:02:13 PM 29.0450 -79.5660 197° South 462 532 36,000  Level FlightAware ADS-B
Tue 04:02:57 PM 28.9480 -79.6020 198° South 464 534 36,000  Level FlightAware ADS-B
Tue 04:03:29 PM 28.8820 -79.6260 198° South 464 534 36,000  Level FlightAware ADS-B
Tue 04:04:28 PM 28.7610 -79.6700 198° South 464 534 36,000  Level FlightAware ADS-B
Tue 04:05:33 PM 28.6280 -79.7190 198° South 464 534 36,000  Level FlightAware ADS-B
Tue 04:06:01 PM 28.5710 -79.7400 198° South 464 534 36,000  Level FlightAware ADS-B
Tue 04:06:35 PM 28.5010 -79.7650 197° South 464 534 36,000  Level FlightAware ADS-B
Tue 04:07:06 PM 28.4390 -79.7880 198° South 466 536 36,000  Level FlightAware ADS-B
Tue 04:07:34 PM 28.3810 -79.8090 198° South 466 536 36,000  Level FlightAware ADS-B
Tue 04:08:37 PM 28.2510 -79.8560 198° South 468 539 36,000  Level FlightAware ADS-B
Tue 04:09:37 PM 28.1260 -79.9010 198° South 469 540 36,000  Level FlightAware ADS-B
Tue 04:10:14 PM 28.0480 -79.9290 198° South 470 541 36,000  Level FlightAware ADS-B
Tue 04:10:51 PM 27.9720 -79.9560 197° South 469 540 36,000  Level FlightAware ADS-B
Tue 04:11:45 PM 27.8620 -79.9960 198° South 460 529 36,000  Level FlightAware ADS-B
Tue 04:12:20 PM 27.7930 -80.0210 198° South 459 528 36,000  Level FlightAware ADS-B
Tue 04:13:00 PM 27.7080 -80.0510 197° South 459 528 36,000  Level FlightAware ADS-B
Tue 04:13:35 PM 27.6360 -80.0770 198° South 457 526 36,000  Level FlightAware ADS-B
Tue 04:14:35 PM 27.5150 -80.1200 197° South 455 524 36,000  Level FlightAware ADS-B
Tue 04:15:35 PM 27.3930 -80.1640 198° South 459 528 36,000  Level FlightAware ADS-B
Tue 04:16:00 PM 27.3410 -80.1820 197° South 458 527 36,000  Level FlightAware ADS-B
Tue 04:17:10 PM 27.2010 -80.2320 198° South 456 525 36,000  Level FlightAware ADS-B
Tue 04:17:47 PM 27.1290 -80.2580 198° South 454 522 36,000  Level FlightAware ADS-B
Tue 04:18:45 PM 27.0080 -80.3000 197° South 451 519 36,000  Level FlightAware ADS-B
Tue 04:19:20 PM 26.9400 -80.3240 197° South 442 509 36,000  Level FlightAware ADS-B
Tue 04:19:50 PM 26.8790 -80.3460 198° South 440 506 36,000  Level FlightAware ADS-B
Tue 04:21:07 PM 26.7260 -80.4000 197° South 445 512 36,000  Level FlightAware ADS-B
Tue 04:22:10 PM 26.6030 -80.4430 197° South 441 507 36,000  Level FlightAware ADS-B
Tue 04:23:12 PM 26.4820 -80.4850 197° South 438 504 36,000  Level FlightAware ADS-B
Tue 04:23:38 PM 26.4320 -80.5030 198° South 436 502 36,000  Level FlightAware ADS-B
Tue 04:24:41 PM 26.3150 -80.5550 202° Southwest 435 501 36,000  Level FlightAware ADS-B
Tue 04:25:15 PM 26.2560 -80.5970 213° Southwest 435 501 36,000  Level FlightAware ADS-B
Tue 04:25:56 PM 26.1860 -80.6470 213° Southwest 433 498 36,000  Level FlightAware ADS-B
Tue 04:26:53 PM 26.0900 -80.7150 212° Southwest 432 497 36,000  Level FlightAware ADS-B
Tue 04:27:56 PM 25.9860 -80.7890 213° Southwest 431 496 36,000  Level FlightAware ADS-B
Tue 04:28:07 PM 25.9670 -80.8020 212° Southwest 431 496 36,000  Level FlightAware ADS-B
Tue 04:29:05 PM 25.8710 -80.8690 212° Southwest 430 495 36,000  Level FlightAware ADS-B
Tue 04:30:06 PM 25.7660 -80.9430 212° Southwest 429 494 36,000  Level FlightAware ADS-B
Tue 04:30:39 PM 25.7120 -80.9810 212° Southwest 429 494 36,000  Level FlightAware ADS-B
Tue 04:31:35 PM 25.6190 -81.0460 212° Southwest 430 495 36,000  Level FlightAware ADS-B
Tue 04:32:31 PM 25.5220 -81.1140 212° Southwest 426 490 36,000  Level FlightAware ADS-B
Tue 04:32:55 PM 25.4820 -81.1420 212° Southwest 426 490 36,000  Level FlightAware ADS-B
Tue 04:33:56 PM 25.3800 -81.2130 212° Southwest 429 494 36,000 -194 Level FlightAware ADS-B
Tue 04:34:28 PM 25.3260 -81.2500 212° Southwest 424 488 35,700 -1,590 Descending FlightAware ADS-B
Tue 04:35:19 PM 25.2410 -81.3090 212° Southwest 418 481 33,800 -2,485 Descending FlightAware ADS-B
Tue 04:36:07 PM 25.1630 -81.3630 212° Southwest 424 488 31,600 -2,132 Descending FlightAware ADS-B
Tue 04:36:35 PM 25.1150 -81.3970 213° Southwest 430 495 31,100 -396 Descending FlightAware ADS-B
Tue 04:37:38 PM 25.0070 -81.4710 212° Southwest 442 509 31,000 -65 Descending FlightAware ADS-B
Tue 04:38:07 PM 24.9560 -81.5060 212° Southwest 445 512 31,000 -607 Level FlightAware ADS-B
Tue 04:39:07 PM 24.8510 -81.5780 212° Southwest 446 513 30,100 -944 Descending FlightAware ADS-B
Tue 04:39:55 PM 24.7690 -81.6350 212° Southwest 430 495 29,300 -973 Descending FlightAware ADS-B
Tue 04:40:21 PM 24.7270 -81.6640 212° Southwest 425 489 28,900 -960 Descending FlightAware ADS-B
Tue 04:41:10 PM 24.6450 -81.7200 212° Southwest 418 481 28,100 -991 Descending FlightAware ADS-B
Tue 04:42:10 PM 24.5470 -81.7920 214° Southwest 416 479 27,100 -991 Descending FlightAware ADS-B
Tue 04:43:05 PM 24.4770 -81.8820 229° Southwest 416 479 26,200 -988 Descending FlightAware ADS-B
Tue 04:43:35 PM 24.4410 -81.9300 231° Southwest 414 476 25,700 -1,011 Descending FlightAware ADS-B
Tue 04:44:34 PM 24.3720 -82.0230 231° Southwest 404 465 24,700 -947 Descending FlightAware ADS-B
Tue 04:45:10 PM 24.3310 -82.0790 231° Southwest 409 471 24,200 -1,000 Descending FlightAware ADS-B
Tue 04:46:10 PM 24.2550 -82.1790 230° Southwest 409 471 23,100 -649 Descending FlightAware ADS-B
Tue 04:47:01 PM 24.2040 -82.2470 231° Southwest 409 471 23,000 -54 Descending FlightAware ADS-B
Tue 04:48:02 PM 24.1410 -82.3290 230° Southwest 409 471 23,000  Level FlightAware ADS-B
Tue 04:48:51 PM 24.0900 -82.3960 230° Southwest 409 471 23,000  Level FlightAware ADS-B
Tue 04:49:28 PM 24.0520 -82.4450 230° Southwest 409 471 23,000  Level FlightAware ADS-B
Tue 04:50:17 PM 24.0010 -82.5120 230° Southwest 409 471 23,000  Level FlightAware ADS-B
Tue 04:56:00 PM 23.3198 -82.4426 175° South  Level Estimated
Tue 04:57:00 PM 23.2007 -82.4305 175° South  Level Estimated
Tue 04:58:00 PM 23.0815 -82.4184 175° South  Level Estimated
Tue 04:59:00 PM 22.9891 -82.4091 175° South  Level Estimated
Tue 05:00:00 PM 22.9891 -82.4091 51° Northeast  Level Estimated
Tue 05:01:00 PM 22.9891 -82.4091 51° Northeast  Level Estimated
Tue 05:02:00 PM 22.9891 -82.4091 51° Northeast  Level Estimated
Tue 05:03:00 PM 22.9891 -82.4091 51° Northeast  Level Estimated
Tue 05:04:00 PM 22.9891 -82.4091 51° Northeast  Level Estimated
Tue 05:05:00 PM 22.9891 -82.4091 51° Northeast  Level Estimated
Tue 05:06:00 PM 22.9891 -82.4091 51° Northeast  Level Estimated
Tue 05:07:00 PM 22.9891 -82.4091 51° Northeast  Level Estimated
Tue 05:08:00 PM 22.9891 -82.4091 51° Northeast  Level Estimated
Tue 05:09:00 PM 22.9891 -82.4091 51° Northeast  Level Estimated
Tue 05:10:00 PM 22.9891 -82.4091 51° Northeast  Level Estimated
Tue 05:11:00 PM 22.9891 -82.4091 51° Northeast  Level Estimated
Tue 05:12:00 PM 22.9891 -82.4091 51° Northeast  Level Estimated
Tue 05:13:00 PM 22.9891 -82.4091 51° Northeast  Level Estimated
Tue 05:14:00 PM 22.9891 -82.4091 51° Northeast  Level Estimated
Tue 05:15:00 PM 22.9891 -82.4091 51° Northeast  Level Estimated
Tue 05:16:00 PM 22.9891 -82.4091 51° Northeast  Level Estimated
Tue 05:17:00 PM 22.9891 -82.4091 51° Northeast  Level Estimated
Tue 05:18:00 PM 22.9891 -82.4091 51° Northeast  Level Estimated
Tue 05:19:00 PM 22.9891 -82.4091 51° Northeast  Level Estimated

Login

Don't have an account? Register now (free) for customized features, flight alerts, and more!